Observation data for Throckmorton on 09/12/2017      Previous  Date  Next       Current Mesonet Observations  Soil Data  Daily Summary Page  Observations in Plain Language
KTH1 120500Z 27001KT 17/14 A3005 RMK A01 T01730142  RH  082%=      5-min Rain = 0
KTH1 120501Z 28000KT 17/14 A3005 RMK A01 T01730143  RH  082%=      5-min Rain = 0
KTH1 120502Z 29000KT 17/14 A3005 RMK A01 T01730143  RH  082%=      5-min Rain = 0
KTH1 120503Z 29001KT 17/14 A3005 RMK A01 T01730143  RH  082%=      5-min Rain = 0
KTH1 120504Z 31001KT 17/14 A3005 RMK A01 T01730143  RH  083%=      5-min Rain = 0
KTH1 120505Z 31000KT 17/14 A3005 RMK A01 T01730144  RH  083%=      5-min Rain = 0
KTH1 120506Z 00000KT 17/14 A3005 RMK A01 T01730144  RH  083%=      5-min Rain = 0
KTH1 120507Z 00000KT 17/15 A3005 RMK A01 T01730145  RH  083%=      5-min Rain = 0
KTH1 120508Z 00000KT 17/15 A3005 RMK A01 T01730145  RH  083%=      5-min Rain = 0
KTH1 120509Z 00000KT 17/15 A3005 RMK A01 T01730146  RH  084%=      5-min Rain = 0
KTH1 120510Z 00000KT 17/15 A3005 RMK A01 T01730145  RH  084%=      5-min Rain = 0
KTH1 120511Z 00000KT 17/15 A3005 RMK A01 T01730145  RH  084%=      5-min Rain = 0
KTH1 120512Z 00000KT 17/15 A3005 RMK A01 T01730145  RH  084%=      5-min Rain = 0
KTH1 120513Z 00000KT 17/15 A3005 RMK A01 T01720145  RH  084%=      5-min Rain = 0
KTH1 120514Z 00000KT 17/15 A3005 RMK A01 T01720145  RH  084%=      5-min Rain = 0
KTH1 120515Z 00000KT 17/15 A3004 RMK A01 T01720145  RH  084%=      5-min Rain = 0
KTH1 120516Z 00000KT 17/15 A3004 RMK A01 T01730145  RH  084%=      5-min Rain = 0
KTH1 120517Z 00000KT 17/15 A3004 RMK A01 T01720145  RH  084%=      5-min Rain = 0
KTH1 120518Z 00000KT 17/14 A3004 RMK A01 T01720144  RH  083%=      5-min Rain = 0
KTH1 120519Z 00000KT 17/14 A3004 RMK A01 T01720143  RH  083%=      5-min Rain = 0
KTH1 120520Z 00000KT 17/14 A3004 RMK A01 T01720142  RH  083%=      5-min Rain = 0
KTH1 120521Z 27000KT 17/14 A3004 RMK A01 T01730144  RH  083%=      5-min Rain = 0
KTH1 120522Z 27000KT 17/14 A3004 RMK A01 T01730144  RH  083%=      5-min Rain = 0
KTH1 120523Z 28001KT 17/15 A3004 RMK A01 T01740145  RH  084%=      5-min Rain = 0
KTH1 120524Z 27001KT 17/15 A3004 RMK A01 T01740146  RH  084%=      5-min Rain = 0
KTH1 120525Z 27002KT 18/15 A3004 RMK A01 T01750147  RH  084%=      5-min Rain = 0
KTH1 120526Z 27002KT 18/15 A3004 RMK A01 T01750148  RH  084%=      5-min Rain = 0
KTH1 120527Z 27002KT 18/15 A3004 RMK A01 T01750148  RH  084%=      5-min Rain = 0
KTH1 120528Z 27002KT 18/15 A3004 RMK A01 T01750148  RH  084%=      5-min Rain = 0
KTH1 120529Z 27002KT 18/15 A3004 RMK A01 T01750148  RH  084%=      5-min Rain = 0
KTH1 120530Z 26002KT 18/15 A3004 RMK A01 T01750147  RH  084%=      5-min Rain = 0
KTH1 120531Z 25001KT 17/15 A3004 RMK A01 T01740147  RH  084%=      5-min Rain = 0
KTH1 120532Z 25001KT 17/14 A3004 RMK A01 T01740144  RH  083%=      5-min Rain = 0
KTH1 120533Z 27001KT 17/14 A3004 RMK A01 T01730143  RH  083%=      5-min Rain = 0
KTH1 120534Z 27001KT 17/14 A3004 RMK A01 T01720142  RH  083%=      5-min Rain = 0
KTH1 120535Z 27001KT 17/14 A3004 RMK A01 T01720142  RH  083%=      5-min Rain = 0
KTH1 120536Z 26002KT 17/14 A3004 RMK A01 T01720143  RH  083%=      5-min Rain = 0
KTH1 120537Z 26002KT 17/14 A3004 RMK A01 T01710143  RH  083%=      5-min Rain = 0
KTH1 120538Z 26002KT 17/14 A3004 RMK A01 T01720144  RH  084%=      5-min Rain = 0
KTH1 120539Z 26002KT 17/14 A3004 RMK A01 T01710143  RH  083%=      5-min Rain = 0
KTH1 120540Z 27002KT 17/14 A3004 RMK A01 T01710143  RH  084%=      5-min Rain = 0
KTH1 120541Z 27001KT 17/14 A3004 RMK A01 T01700142  RH  084%=      5-min Rain = 0
KTH1 120542Z 27001KT 17/14 A3004 RMK A01 T01700141  RH  083%=      5-min Rain = 0
KTH1 120543Z 27001KT 17/14 A3004 RMK A01 T01700141  RH  083%=      5-min Rain = 0
KTH1 120544Z 27001KT 17/14 A3004 RMK A01 T01700141  RH  083%=      5-min Rain = 0
KTH1 120545Z 27001KT 17/14 A3004 RMK A01 T01690141  RH  083%=      5-min Rain = 0
KTH1 120546Z 28002KT 17/14 A3004 RMK A01 T01700141  RH  083%=      5-min Rain = 0
KTH1 120547Z 27002KT 17/14 A3004 RMK A01 T01700141  RH  083%=      5-min Rain = 0
KTH1 120548Z 27002KT 17/14 A3004 RMK A01 T01700142  RH  083%=      5-min Rain = 0
KTH1 120549Z 26002KT 17/14 A3004 RMK A01 T01700141  RH  083%=      5-min Rain = 0
KTH1 120550Z 26002KT 17/14 A3004 RMK A01 T01700141  RH  083%=      5-min Rain = 0
KTH1 120551Z 27002KT 17/14 A3004 RMK A01 T01700141  RH  083%=      5-min Rain = 0
KTH1 120552Z 27002KT 17/14 A3004 RMK A01 T01700141  RH  083%=      5-min Rain = 0
KTH1 120553Z 27002KT 17/14 A3004 RMK A01 T01700141  RH  083%=      5-min Rain = 0
KTH1 120554Z 27002KT 17/14 A3004 RMK A01 T01700141  RH  083%=      5-min Rain = 0
KTH1 120555Z 27002KT 17/14 A3004 RMK A01 T01690141  RH  083%=      5-min Rain = 0
KTH1 120556Z 26002KT 17/14 A3004 RMK A01 T01690141  RH  083%=      5-min Rain = 0
KTH1 120557Z 27002KT 17/14 A3004 RMK A01 T01690140  RH  083%=      5-min Rain = 0
KTH1 120558Z 26002KT 17/14 A3004 RMK A01 T01690140  RH  083%=      5-min Rain = 0
KTH1 120559Z 26002KT 17/14 A3003 RMK A01 T01680139  RH  083%=      5-min Rain = 0
KTH1 120600Z 27002KT 17/14 A3003 RMK A01 T01680139  RH  083%=      5-min Rain = 0
KTH1 120601Z 26002KT 17/14 A3003 RMK A01 T01680138  RH  083%=      5-min Rain = 0
KTH1 120602Z 26002KT 17/14 A3003 RMK A01 T01680137  RH  082%=      5-min Rain = 0
KTH1 120603Z 26002KT 17/14 A3003 RMK A01 T01670135  RH  081%=      5-min Rain = 0
KTH1 120604Z 26002KT 17/13 A3003 RMK A01 T01670134  RH  081%=      5-min Rain = 0
KTH1 120605Z 26002KT 17/13 A3003 RMK A01 T01670134  RH  081%=      5-min Rain = 0
KTH1 120606Z 26001KT 17/13 A3003 RMK A01 T01670133  RH  081%=      5-min Rain = 0
KTH1 120607Z 25001KT 17/13 A3003 RMK A01 T01670133  RH  080%=      5-min Rain = 0
KTH1 120608Z 26001KT 17/13 A3003 RMK A01 T01660131  RH  080%=      5-min Rain = 0
KTH1 120609Z 26001KT 17/13 A3003 RMK A01 T01660132  RH  080%=      5-min Rain = 0
KTH1 120610Z 25001KT 17/13 A3003 RMK A01 T01660133  RH  080%=      5-min Rain = 0
KTH1 120611Z 25001KT 17/13 A3003 RMK A01 T01670132  RH  080%=      5-min Rain = 0
KTH1 120612Z 26001KT 17/13 A3003 RMK A01 T01660132  RH  080%=      5-min Rain = 0
KTH1 120613Z 25001KT 17/13 A3003 RMK A01 T01660132  RH  080%=      5-min Rain = 0
KTH1 120614Z 25002KT 17/13 A3003 RMK A01 T01670130  RH  079%=      5-min Rain = 0
KTH1 120615Z 25002KT 17/13 A3003 RMK A01 T01660130  RH  079%=      5-min Rain = 0
KTH1 120616Z 25002KT 17/13 A3003 RMK A01 T01660130  RH  079%=      5-min Rain = 0
KTH1 120617Z 25002KT 17/13 A3003 RMK A01 T01660130  RH  079%=      5-min Rain = 0
KTH1 120618Z 25002KT 17/13 A3003 RMK A01 T01670130  RH  079%=      5-min Rain = 0
KTH1 120619Z 25002KT 17/13 A3003 RMK A01 T01670131  RH  079%=      5-min Rain = 0
KTH1 120620Z 25002KT 17/13 A3003 RMK A01 T01670131  RH  079%=      5-min Rain = 0
KTH1 120621Z 25002KT 17/13 A3003 RMK A01 T01670131  RH  079%=      5-min Rain = 0
KTH1 120622Z 25002KT 17/13 A3003 RMK A01 T01670131  RH  079%=      5-min Rain = 0
KTH1 120623Z 25002KT 17/13 A3003 RMK A01 T01670130  RH  079%=      5-min Rain = 0
KTH1 120624Z 25002KT 17/13 A3003 RMK A01 T01670129  RH  078%=      5-min Rain = 0
KTH1 120625Z 25002KT 17/13 A3003 RMK A01 T01670130  RH  079%=      5-min Rain = 0
KTH1 120626Z 25002KT 17/13 A3003 RMK A01 T01670129  RH  078%=      5-min Rain = 0
KTH1 120627Z 25002KT 17/13 A3003 RMK A01 T01670130  RH  079%=      5-min Rain = 0
KTH1 120628Z 25003KT 17/13 A3003 RMK A01 T01660129  RH  079%=      5-min Rain = 0
KTH1 120629Z 25003KT 17/13 A3003 RMK A01 T01660130  RH  079%=      5-min Rain = 0
KTH1 120630Z 25002KT 17/13 A3003 RMK A01 T01660131  RH  079%=      5-min Rain = 0
KTH1 120631Z 26002KT 17/13 A3003 RMK A01 T01670131  RH  079%=      5-min Rain = 0
KTH1 120632Z 26002KT 17/13 A3003 RMK A01 T01660130  RH  079%=      5-min Rain = 0
KTH1 120633Z 26002KT 17/13 A3003 RMK A01 T01670131  RH  079%=      5-min Rain = 0
KTH1 120634Z 26002KT 17/13 A3003 RMK A01 T01670131  RH  079%=      5-min Rain = 0
KTH1 120635Z 26002KT 17/13 A3003 RMK A01 T01670132  RH  080%=      5-min Rain = 0
KTH1 120636Z 26002KT 17/13 A3003 RMK A01 T01670133  RH  080%=      5-min Rain = 0
KTH1 120637Z 26002KT 17/13 A3003 RMK A01 T01670132  RH  080%=      5-min Rain = 0
KTH1 120638Z 26002KT 17/13 A3003 RMK A01 T01670132  RH  080%=      5-min Rain = 0
KTH1 120639Z 26002KT 17/13 A3003 RMK A01 T01670132  RH  080%=      5-min Rain = 0
KTH1 120640Z 26002KT 17/13 A3003 RMK A01 T01670132  RH  080%=      5-min Rain = 0
KTH1 120641Z 25002KT 17/13 A3003 RMK A01 T01660133  RH  080%=      5-min Rain = 0
KTH1 120642Z 25002KT 17/13 A3003 RMK A01 T01660133  RH  081%=      5-min Rain = 0
KTH1 120643Z 25002KT 17/13 A3003 RMK A01 T01660132  RH  081%=      5-min Rain = 0
KTH1 120644Z 25003KT 17/13 A3003 RMK A01 T01650131  RH  080%=      5-min Rain = 0
KTH1 120645Z 25003KT 17/13 A3003 RMK A01 T01650129  RH  079%=      5-min Rain = 0
KTH1 120646Z 25002KT 17/13 A3003 RMK A01 T01650129  RH  079%=      5-min Rain = 0
KTH1 120647Z 25003KT 17/13 A3003 RMK A01 T01650130  RH  080%=      5-min Rain = 0
KTH1 120648Z 25003KT 17/13 A3003 RMK A01 T01650129  RH  080%=      5-min Rain = 0
KTH1 120649Z 25003KT 16/13 A3003 RMK A01 T01640129  RH  080%=      5-min Rain = 0
KTH1 120650Z 25003KT 16/13 A3003 RMK A01 T01640130  RH  080%=      5-min Rain = 0
KTH1 120651Z 25003KT 16/13 A3003 RMK A01 T01640130  RH  080%=      5-min Rain = 0
KTH1 120652Z 25003KT 16/13 A3003 RMK A01 T01640130  RH  080%=      5-min Rain = 0
KTH1 120653Z 25003KT 16/13 A3003 RMK A01 T01640129  RH  080%=      5-min Rain = 0
KTH1 120654Z 25003KT 16/13 A3003 RMK A01 T01640128  RH  079%=      5-min Rain = 0
KTH1 120655Z 25004KT 16/13 A3003 RMK A01 T01640127  RH  079%=      5-min Rain = 0
KTH1 120656Z 25004KT 16/13 A3003 RMK A01 T01640125  RH  078%=      5-min Rain = 0
KTH1 120657Z 25004KT 16/13 A3003 RMK A01 T01640125  RH  078%=      5-min Rain = 0
KTH1 120658Z 26004KT 16/13 A3003 RMK A01 T01630125  RH  078%=      5-min Rain = 0
KTH1 120659Z 26004KT 16/12 A3003 RMK A01 T01630124  RH  078%=      5-min Rain = 0
KTH1 120700Z 25004KT 16/13 A3003 RMK A01 T01630125  RH  078%=      5-min Rain = 0
KTH1 120701Z 25004KT 16/13 A3002 RMK A01 T01630126  RH  079%=      5-min Rain = 0
KTH1 120702Z 25004KT 16/13 A3002 RMK A01 T01630126  RH  079%=      5-min Rain = 0
KTH1 120703Z 24004KT 16/13 A3002 RMK A01 T01630127  RH  079%=      5-min Rain = 0
KTH1 120704Z 25004KT 16/13 A3002 RMK A01 T01630126  RH  079%=      5-min Rain = 0
KTH1 120705Z 24004KT 16/13 A3002 RMK A01 T01630127  RH  079%=      5-min Rain = 0
KTH1 120706Z 24004KT 16/13 A3002 RMK A01 T01630125  RH  079%=      5-min Rain = 0
KTH1 120707Z 25004KT 16/12 A3002 RMK A01 T01620124  RH  078%=      5-min Rain = 0
KTH1 120708Z 24003KT 16/12 A3002 RMK A01 T01620124  RH  078%=      5-min Rain = 0
KTH1 120709Z 23003KT 16/12 A3002 RMK A01 T01620120  RH  076%=      5-min Rain = 0
KTH1 120710Z 23003KT 16/12 A3002 RMK A01 T01630119  RH  075%=      5-min Rain = 0
KTH1 120711Z 23003KT 16/12 A3002 RMK A01 T01630117  RH  074%=      5-min Rain = 0
KTH1 120712Z 23003KT 16/12 A3002 RMK A01 T01640118  RH  074%=      5-min Rain = 0
KTH1 120713Z 23003KT 16/12 A3002 RMK A01 T01640118  RH  074%=      5-min Rain = 0
KTH1 120714Z 24003KT 16/12 A3002 RMK A01 T01640118  RH  074%=      5-min Rain = 0
KTH1 120715Z 24003KT 16/12 A3002 RMK A01 T01640119  RH  075%=      5-min Rain = 0
KTH1 120716Z 25003KT 16/12 A3002 RMK A01 T01640123  RH  077%=      5-min Rain = 0
KTH1 120717Z 25003KT 16/13 A3002 RMK A01 T01640127  RH  079%=      5-min Rain = 0
KTH1 120718Z 25004KT 16/13 A3002 RMK A01 T01640127  RH  079%=      5-min Rain = 0
KTH1 120719Z 25004KT 16/13 A3002 RMK A01 T01640128  RH  079%=      5-min Rain = 0
KTH1 120720Z 25004KT 16/13 A3002 RMK A01 T01640126  RH  079%=      5-min Rain = 0
KTH1 120721Z 24004KT 16/12 A3002 RMK A01 T01630124  RH  077%=      5-min Rain = 0
KTH1 120722Z 25004KT 16/12 A3002 RMK A01 T01620123  RH  078%=      5-min Rain = 0
KTH1 120723Z 25004KT 16/12 A3002 RMK A01 T01620124  RH  078%=      5-min Rain = 0
KTH1 120724Z 25004KT 16/13 A3002 RMK A01 T01610125  RH  079%=      5-min Rain = 0
KTH1 120725Z 25003KT 16/13 A3002 RMK A01 T01610125  RH  079%=      5-min Rain = 0
KTH1 120726Z 25003KT 16/13 A3002 RMK A01 T01610125  RH  079%=      5-min Rain = 0
KTH1 120727Z 25003KT 16/13 A3002 RMK A01 T01610126  RH  080%=      5-min Rain = 0
KTH1 120728Z 25003KT 16/13 A3002 RMK A01 T01600125  RH  079%=      5-min Rain = 0
KTH1 120729Z 25003KT 16/12 A3002 RMK A01 T01600124  RH  079%=      5-min Rain = 0
KTH1 120730Z 25003KT 16/12 A3002 RMK A01 T01600123  RH  079%=      5-min Rain = 0
KTH1 120731Z 26003KT 16/12 A3002 RMK A01 T01600122  RH  078%=      5-min Rain = 0
KTH1 120732Z 25004KT 16/12 A3002 RMK A01 T01600121  RH  078%=      5-min Rain = 0
KTH1 120733Z 25004KT 16/12 A3002 RMK A01 T01600121  RH  078%=      5-min Rain = 0
KTH1 120734Z 25004KT 16/12 A3002 RMK A01 T01600120  RH  077%=      5-min Rain = 0
KTH1 120735Z 25004KT 16/12 A3002 RMK A01 T01600122  RH  078%=      5-min Rain = 0
KTH1 120736Z 25003KT 16/12 A3002 RMK A01 T01590121  RH  078%=      5-min Rain = 0
KTH1 120737Z 25003KT 16/12 A3002 RMK A01 T01600120  RH  078%=      5-min Rain = 0
KTH1 120738Z 25003KT 16/12 A3002 RMK A01 T01600119  RH  077%=      5-min Rain = 0
KTH1 120739Z 25004KT 16/12 A3002 RMK A01 T01590117  RH  076%=      5-min Rain = 0
KTH1 120740Z 25003KT 16/12 A3002 RMK A01 T01600118  RH  076%=      5-min Rain = 0
KTH1 120741Z 25003KT 16/12 A3002 RMK A01 T01600118  RH  076%=      5-min Rain = 0
KTH1 120742Z 25003KT 16/12 A3002 RMK A01 T01590117  RH  076%=      5-min Rain = 0
KTH1 120743Z 25003KT 16/11 A3002 RMK A01 T01590114  RH  075%=      5-min Rain = 0
KTH1 120744Z 25003KT 16/11 A3002 RMK A01 T01590114  RH  075%=      5-min Rain = 0
KTH1 120745Z 25003KT 16/12 A3002 RMK A01 T01590115  RH  075%=      5-min Rain = 0
KTH1 120746Z 26003KT 16/12 A3002 RMK A01 T01590116  RH  075%=      5-min Rain = 0
KTH1 120747Z 25003KT 16/12 A3002 RMK A01 T01590115  RH  075%=      5-min Rain = 0
KTH1 120748Z 26003KT 16/12 A3002 RMK A01 T01590115  RH  075%=      5-min Rain = 0
KTH1 120749Z 26003KT 16/12 A3002 RMK A01 T01600115  RH  075%=      5-min Rain = 0
KTH1 120750Z 25003KT 16/12 A3002 RMK A01 T01600115  RH  075%=      5-min Rain = 0
KTH1 120751Z 26003KT 16/11 A3002 RMK A01 T01610114  RH  074%=      5-min Rain = 0
KTH1 120752Z 26003KT 16/12 A3002 RMK A01 T01610115  RH  074%=      5-min Rain = 0
KTH1 120753Z 26003KT 16/12 A3002 RMK A01 T01610116  RH  074%=      5-min Rain = 0
KTH1 120754Z 26002KT 16/12 A3001 RMK A01 T01620117  RH  075%=      5-min Rain = 0
KTH1 120755Z 26003KT 16/12 A3001 RMK A01 T01620117  RH  075%=      5-min Rain = 0
KTH1 120756Z 26003KT 16/12 A3001 RMK A01 T01620117  RH  075%=      5-min Rain = 0
KTH1 120757Z 26002KT 16/12 A3001 RMK A01 T01620118  RH  075%=      5-min Rain = 0
KTH1 120758Z 26003KT 16/12 A3001 RMK A01 T01630119  RH  075%=      5-min Rain = 0
KTH1 120759Z 26003KT 16/12 A3001 RMK A01 T01620119  RH  076%=      5-min Rain = 0
KTH1 120800Z 26002KT 16/12 A3001 RMK A01 T01620119  RH  076%=      5-min Rain = 0
KTH1 120801Z 26002KT 16/12 A3001 RMK A01 T01620119  RH  076%=      5-min Rain = 0
KTH1 120802Z 27002KT 16/12 A3001 RMK A01 T01620120  RH  076%=      5-min Rain = 0
KTH1 120803Z 26002KT 16/12 A3001 RMK A01 T01620120  RH  076%=      5-min Rain = 0
KTH1 120804Z 26002KT 16/12 A3001 RMK A01 T01620120  RH  076%=      5-min Rain = 0
KTH1 120805Z 27003KT 16/12 A3001 RMK A01 T01620119  RH  075%=      5-min Rain = 0
KTH1 120806Z 27002KT 16/12 A3001 RMK A01 T01630119  RH  075%=      5-min Rain = 0
KTH1 120807Z 26003KT 16/12 A3001 RMK A01 T01630121  RH  076%=      5-min Rain = 0
KTH1 120808Z 26002KT 16/12 A3001 RMK A01 T01630122  RH  077%=      5-min Rain = 0
KTH1 120809Z 27004KT 16/12 A3001 RMK A01 T01630123  RH  077%=      5-min Rain = 0
KTH1 120810Z 26003KT 16/12 A3001 RMK A01 T01630122  RH  076%=      5-min Rain = 0
KTH1 120811Z 26004KT 16/12 A3001 RMK A01 T01630120  RH  076%=      5-min Rain = 0
KTH1 120812Z 26004KT 16/12 A3001 RMK A01 T01640121  RH  076%=      5-min Rain = 0
KTH1 120813Z 26004KT 16/12 A3001 RMK A01 T01630121  RH  076%=      5-min Rain = 0
KTH1 120814Z 26003KT 16/12 A3001 RMK A01 T01640121  RH  076%=      5-min Rain = 0
KTH1 120815Z 26003KT 16/12 A3001 RMK A01 T01630119  RH  075%=      5-min Rain = 0
KTH1 120816Z 26004KT 16/12 A3001 RMK A01 T01620119  RH  076%=      5-min Rain = 0
KTH1 120817Z 26003KT 16/12 A3001 RMK A01 T01620119  RH  076%=      5-min Rain = 0
KTH1 120818Z 26004KT 16/12 A3001 RMK A01 T01610119  RH  076%=      5-min Rain = 0
KTH1 120819Z 26004KT 16/12 A3001 RMK A01 T01610119  RH  076%=      5-min Rain = 0
KTH1 120820Z 26003KT 16/12 A3001 RMK A01 T01600120  RH  077%=      5-min Rain = 0
KTH1 120821Z 26003KT 16/12 A3001 RMK A01 T01600122  RH  078%=      5-min Rain = 0
KTH1 120822Z 26003KT 16/13 A3001 RMK A01 T01600126  RH  080%=      5-min Rain = 0
KTH1 120823Z 26003KT 16/13 A3001 RMK A01 T01600126  RH  080%=      5-min Rain = 0
KTH1 120824Z 26003KT 16/13 A3001 RMK A01 T01600127  RH  081%=      5-min Rain = 0
KTH1 120825Z 26003KT 16/13 A3001 RMK A01 T01600128  RH  081%=      5-min Rain = 0
KTH1 120826Z 26003KT 16/13 A3001 RMK A01 T01600128  RH  081%=      5-min Rain = 0
KTH1 120827Z 26003KT 16/13 A3001 RMK A01 T01600127  RH  081%=      5-min Rain = 0
KTH1 120828Z 26002KT 16/13 A3001 RMK A01 T01600126  RH  080%=      5-min Rain = 0
KTH1 120829Z 27003KT 16/13 A3001 RMK A01 T01600126  RH  080%=      5-min Rain = 0
KTH1 120830Z 26002KT 16/13 A3001 RMK A01 T01600126  RH  080%=      5-min Rain = 0
KTH1 120831Z 27002KT 16/13 A3001 RMK A01 T01600127  RH  081%=      5-min Rain = 0
KTH1 120832Z 26002KT 16/13 A3001 RMK A01 T01600127  RH  081%=      5-min Rain = 0
KTH1 120833Z 27002KT 16/13 A3001 RMK A01 T01600127  RH  081%=      5-min Rain = 0
KTH1 120834Z 26002KT 16/13 A3001 RMK A01 T01600126  RH  080%=      5-min Rain = 0
KTH1 120835Z 27002KT 16/13 A3001 RMK A01 T01600126  RH  080%=      5-min Rain = 0
KTH1 120836Z 27002KT 16/13 A3001 RMK A01 T01600126  RH  080%=      5-min Rain = 0
KTH1 120837Z 27002KT 16/13 A3001 RMK A01 T01600126  RH  080%=      5-min Rain = 0
KTH1 120838Z 27002KT 16/13 A3001 RMK A01 T01600126  RH  080%=      5-min Rain = 0
KTH1 120839Z 27002KT 16/13 A3001 RMK A01 T01600126  RH  080%=      5-min Rain = 0
KTH1 120840Z 27002KT 16/13 A3001 RMK A01 T01610126  RH  080%=      5-min Rain = 0
KTH1 120841Z 27002KT 16/13 A3001 RMK A01 T01600126  RH  080%=      5-min Rain = 0
KTH1 120842Z 27002KT 16/13 A3001 RMK A01 T01600127  RH  080%=      5-min Rain = 0
KTH1 120843Z 27002KT 16/13 A3001 RMK A01 T01610126  RH  080%=      5-min Rain = 0
KTH1 120844Z 27002KT 16/12 A3001 RMK A01 T01600124  RH  079%=      5-min Rain = 0
KTH1 120845Z 27002KT 16/13 A3001 RMK A01 T01610125  RH  079%=      5-min Rain = 0
KTH1 120846Z 27002KT 16/12 A3001 RMK A01 T01600123  RH  078%=      5-min Rain = 0
KTH1 120847Z 27002KT 16/12 A3001 RMK A01 T01610123  RH  078%=      5-min Rain = 0
KTH1 120848Z 27002KT 16/12 A3001 RMK A01 T01610123  RH  078%=      5-min Rain = 0
KTH1 120849Z 26002KT 16/12 A3001 RMK A01 T01610124  RH  078%=      5-min Rain = 0
KTH1 120850Z 27002KT 16/12 A3001 RMK A01 T01610123  RH  078%=      5-min Rain = 0
KTH1 120851Z 26002KT 16/12 A3001 RMK A01 T01620123  RH  078%=      5-min Rain = 0
KTH1 120852Z 26002KT 16/12 A3001 RMK A01 T01620123  RH  077%=      5-min Rain = 0
KTH1 120853Z 26002KT 16/12 A3001 RMK A01 T01620123  RH  078%=      5-min Rain = 0
KTH1 120854Z 26002KT 16/13 A3001 RMK A01 T01620125  RH  079%=      5-min Rain = 0
KTH1 120855Z 26002KT 16/13 A3001 RMK A01 T01610127  RH  080%=      5-min Rain = 0
KTH1 120856Z 26002KT 16/13 A3001 RMK A01 T01610128  RH  081%=      5-min Rain = 0
KTH1 120857Z 27002KT 16/13 A3001 RMK A01 T01600129  RH  082%=      5-min Rain = 0
KTH1 120858Z 27002KT 16/13 A3001 RMK A01 T01600131  RH  083%=      5-min Rain = 0
KTH1 120859Z 27002KT 16/13 A3001 RMK A01 T01600130  RH  083%=      5-min Rain = 0
KTH1 120900Z 26002KT 16/13 A3001 RMK A01 T01600131  RH  083%=      5-min Rain = 0
KTH1 120901Z 26001KT 16/13 A3001 RMK A01 T01590130  RH  083%=      5-min Rain = 0
KTH1 120902Z 26002KT 16/13 A3001 RMK A01 T01590129  RH  083%=      5-min Rain = 0
KTH1 120903Z 26002KT 16/13 A3001 RMK A01 T01590129  RH  082%=      5-min Rain = 0
KTH1 120904Z 27002KT 16/13 A3001 RMK A01 T01590129  RH  082%=      5-min Rain = 0
KTH1 120905Z 27002KT 16/13 A3001 RMK A01 T01590131  RH  084%=      5-min Rain = 0
KTH1 120906Z 27002KT 16/13 A3001 RMK A01 T01590132  RH  084%=      5-min Rain = 0
KTH1 120907Z 27002KT 16/13 A3001 RMK A01 T01590133  RH  084%=      5-min Rain = 0
KTH1 120908Z 27002KT 16/13 A30 RMK A01 T01590134  RH  085%=      5-min Rain = 0
KTH1 120909Z 27002KT 16/13 A30 RMK A01 T01600134  RH  085%=      5-min Rain = 0
KTH1 120910Z 27002KT 16/14 A30 RMK A01 T01600136  RH  085%=      5-min Rain = 0
KTH1 120911Z 27002KT 16/14 A30 RMK A01 T01610137  RH  086%=      5-min Rain = 0
KTH1 120912Z 27002KT 16/14 A30 RMK A01 T01610137  RH  085%=      5-min Rain = 0
KTH1 120913Z 27002KT 16/14 A30 RMK A01 T01610136  RH  085%=      5-min Rain = 0
KTH1 120914Z 26002KT 16/14 A30 RMK A01 T01610136  RH  085%=      5-min Rain = 0
KTH1 120915Z 26002KT 16/14 A30 RMK A01 T01610136  RH  085%=      5-min Rain = 0
KTH1 120916Z 26002KT 16/14 A30 RMK A01 T01610136  RH  085%=      5-min Rain = 0
KTH1 120917Z 27002KT 16/14 A30 RMK A01 T01610136  RH  085%=      5-min Rain = 0
KTH1 120918Z 27002KT 16/14 A30 RMK A01 T01600136  RH  085%=      5-min Rain = 0
KTH1 120919Z 27002KT 16/14 A30 RMK A01 T01600136  RH  086%=      5-min Rain = 0
KTH1 120920Z 27002KT 16/14 A30 RMK A01 T01600138  RH  087%=      5-min Rain = 0
KTH1 120921Z 27002KT 16/14 A30 RMK A01 T01600140  RH  088%=      5-min Rain = 0
KTH1 120922Z 27002KT 16/14 A30 RMK A01 T01590141  RH  089%=      5-min Rain = 0
KTH1 120923Z 27003KT 16/14 A30 RMK A01 T01600139  RH  088%=      5-min Rain = 0
KTH1 120924Z 27003KT 16/14 A30 RMK A01 T01600139  RH  088%=      5-min Rain = 0
KTH1 120925Z 27003KT 16/14 A30 RMK A01 T01600140  RH  088%=      5-min Rain = 0
KTH1 120926Z 27003KT 16/14 A30 RMK A01 T01600141  RH  088%=      5-min Rain = 0
KTH1 120927Z 27003KT 16/14 A30 RMK A01 T01600140  RH  088%=      5-min Rain = 0
KTH1 120928Z 27003KT 16/14 A30 RMK A01 T01600138  RH  087%=      5-min Rain = 0
KTH1 120929Z 27003KT 16/14 A30 RMK A01 T01610139  RH  087%=      5-min Rain = 0
KTH1 120930Z 27003KT 16/14 A30 RMK A01 T01610140  RH  087%=      5-min Rain = 0
KTH1 120931Z 27003KT 16/14 A30 RMK A01 T01610140  RH  088%=      5-min Rain = 0
KTH1 120932Z 27003KT 16/14 A30 RMK A01 T01600138  RH  087%=      5-min Rain = 0
KTH1 120933Z 27003KT 16/14 A30 RMK A01 T01600140  RH  088%=      5-min Rain = 0
KTH1 120934Z 27003KT 16/14 A30 RMK A01 T01600140  RH  088%=      5-min Rain = 0
KTH1 120935Z 27003KT 16/14 A30 RMK A01 T01600141  RH  088%=      5-min Rain = 0
KTH1 120936Z 27003KT 16/14 A30 RMK A01 T01600140  RH  088%=      5-min Rain = 0
KTH1 120937Z 27003KT 16/14 A30 RMK A01 T01590140  RH  089%=      5-min Rain = 0
KTH1 120938Z 28003KT 16/14 A30 RMK A01 T01590140  RH  089%=      5-min Rain = 0
KTH1 120939Z 27002KT 16/14 A30 RMK A01 T01580141  RH  089%=      5-min Rain = 0
KTH1 120940Z 28003KT 16/14 A30 RMK A01 T01580140  RH  089%=      5-min Rain = 0
KTH1 120941Z 28003KT 16/14 A30 RMK A01 T01570136  RH  087%=      5-min Rain = 0
KTH1 120942Z 29003KT 16/14 A30 RMK A01 T01560136  RH  088%=      5-min Rain = 0
KTH1 120943Z 29003KT 16/13 A30 RMK A01 T01550133  RH  087%=      5-min Rain = 0
KTH1 120944Z 29003KT 15/13 A30 RMK A01 T01540127  RH  084%=      5-min Rain = 0
KTH1 120945Z 29003KT 15/12 A30 RMK A01 T01510122  RH  083%=      5-min Rain = 0
KTH1 120946Z 30003KT 15/12 A30 RMK A01 T01490121  RH  083%=      5-min Rain = 0
KTH1 120947Z 30003KT 15/12 A30 RMK A01 T01490122  RH  084%=      5-min Rain = 0
KTH1 120948Z 30003KT 15/12 A30 RMK A01 T01480120  RH  083%=      5-min Rain = 0
KTH1 120949Z 30003KT 15/12 A30 RMK A01 T01480119  RH  083%=      5-min Rain = 0
KTH1 120950Z 30003KT 15/12 A3001 RMK A01 T01470115  RH  081%=      5-min Rain = 0
KTH1 120951Z 30003KT 15/12 A3001 RMK A01 T01490116  RH  081%=      5-min Rain = 0
KTH1 120952Z 30003KT 15/12 A3001 RMK A01 T01500117  RH  081%=      5-min Rain = 0
KTH1 120953Z 30002KT 15/12 A3001 RMK A01 T01510118  RH  081%=      5-min Rain = 0
KTH1 120954Z 30003KT 15/12 A3001 RMK A01 T01530119  RH  080%=      5-min Rain = 0
KTH1 120955Z 31002KT 15/12 A3001 RMK A01 T01530117  RH  079%=      5-min Rain = 0
KTH1 120956Z 31003KT 15/12 A3001 RMK A01 T01540118  RH  079%=      5-min Rain = 0
KTH1 120957Z 31003KT 16/12 A3001 RMK A01 T01550117  RH  078%=      5-min Rain = 0
KTH1 120958Z 31002KT 16/12 A3001 RMK A01 T01550116  RH  078%=      5-min Rain = 0
KTH1 120959Z 31003KT 16/12 A3001 RMK A01 T01550118  RH  078%=      5-min Rain = 0
KTH1 121000Z 31003KT 16/12 A3001 RMK A01 T01550118  RH  078%=      5-min Rain = 0
KTH1 121001Z 32002KT 15/12 A3001 RMK A01 T01540117  RH  078%=      5-min Rain = 0
KTH1 121002Z 32002KT 15/12 A3001 RMK A01 T01540116  RH  078%=      5-min Rain = 0
KTH1 121003Z 31002KT 15/12 A3001 RMK A01 T01530116  RH  079%=      5-min Rain = 0
KTH1 121004Z 32002KT 15/12 A3001 RMK A01 T01530116  RH  079%=      5-min Rain = 0
KTH1 121005Z 31002KT 15/12 A3001 RMK A01 T01520117  RH  079%=      5-min Rain = 0
KTH1 121006Z 31002KT 15/12 A3001 RMK A01 T01520116  RH  079%=      5-min Rain = 0
KTH1 121007Z 31002KT 15/12 A3001 RMK A01 T01520116  RH  079%=      5-min Rain = 0
KTH1 121008Z 31002KT 15/12 A3001 RMK A01 T01520117  RH  080%=      5-min Rain = 0
KTH1 121009Z 30002KT 15/12 A3001 RMK A01 T01520118  RH  080%=      5-min Rain = 0
KTH1 121010Z 30002KT 15/12 A3001 RMK A01 T01530119  RH  080%=      5-min Rain = 0
KTH1 121011Z 29001KT 15/12 A3001 RMK A01 T01530117  RH  079%=      5-min Rain = 0
KTH1 121012Z 29002KT 15/12 A3001 RMK A01 T01530118  RH  080%=      5-min Rain = 0
KTH1 121013Z 29002KT 15/12 A3001 RMK A01 T01530119  RH  080%=      5-min Rain = 0
KTH1 121014Z 29002KT 15/12 A3001 RMK A01 T01530119  RH  080%=      5-min Rain = 0
KTH1 121015Z 29002KT 15/12 A3001 RMK A01 T01530120  RH  081%=      5-min Rain = 0
KTH1 121016Z 29002KT 15/12 A3001 RMK A01 T01520120  RH  081%=      5-min Rain = 0
KTH1 121017Z 30003KT 15/12 A3001 RMK A01 T01530120  RH  081%=      5-min Rain = 0
KTH1 121018Z 30002KT 15/12 A3001 RMK A01 T01530117  RH  079%=      5-min Rain = 0
KTH1 121019Z 31003KT 15/12 A3001 RMK A01 T01530117  RH  079%=      5-min Rain = 0
KTH1 121020Z 31003KT 15/12 A3001 RMK A01 T01530117  RH  079%=      5-min Rain = 0
KTH1 121021Z 32003KT 15/12 A3001 RMK A01 T01530117  RH  079%=      5-min Rain = 0
KTH1 121022Z 32002KT 15/12 A3001 RMK A01 T01530117  RH  079%=      5-min Rain = 0
KTH1 121023Z 32002KT 15/12 A3001 RMK A01 T01530117  RH  079%=      5-min Rain = 0
KTH1 121024Z 33002KT 15/12 A3001 RMK A01 T01530116  RH  079%=      5-min Rain = 0
KTH1 121025Z 32003KT 15/11 A3001 RMK A01 T01540114  RH  077%=      5-min Rain = 0
KTH1 121026Z 31002KT 15/11 A3001 RMK A01 T01530113  RH  077%=      5-min Rain = 0
KTH1 121027Z 32003KT 15/11 A3001 RMK A01 T01540113  RH  076%=      5-min Rain = 0
KTH1 121028Z 32003KT 15/11 A3001 RMK A01 T01530111  RH  076%=      5-min Rain = 0
KTH1 121029Z 32003KT 15/11 A3001 RMK A01 T01540110  RH  075%=      5-min Rain = 0
KTH1 121030Z 31003KT 15/11 A3001 RMK A01 T01530110  RH  075%=      5-min Rain = 0
KTH1 121031Z 31003KT 15/11 A3001 RMK A01 T01540110  RH  075%=      5-min Rain = 0
KTH1 121032Z 31003KT 15/11 A3001 RMK A01 T01530111  RH  076%=      5-min Rain = 0
KTH1 121033Z 30003KT 15/11 A3001 RMK A01 T01540112  RH  076%=      5-min Rain = 0
KTH1 121034Z 30003KT 15/11 A3001 RMK A01 T01540114  RH  077%=      5-min Rain = 0
KTH1 121035Z 30003KT 15/11 A3001 RMK A01 T01540114  RH  077%=      5-min Rain = 0
KTH1 121036Z 30002KT 15/11 A3001 RMK A01 T01530114  RH  077%=      5-min Rain = 0
KTH1 121037Z 30002KT 15/12 A3001 RMK A01 T01530116  RH  078%=      5-min Rain = 0
KTH1 121038Z 30003KT 15/12 A3001 RMK A01 T01530115  RH  078%=      5-min Rain = 0
KTH1 121039Z 30003KT 15/11 A3001 RMK A01 T01530113  RH  077%=      5-min Rain = 0
KTH1 121040Z 30002KT 15/11 A3001 RMK A01 T01530114  RH  078%=      5-min Rain = 0
KTH1 121041Z 29002KT 15/12 A3001 RMK A01 T01520115  RH  078%=      5-min Rain = 0
KTH1 121042Z 27003KT 15/12 A3001 RMK A01 T01520115  RH  079%=      5-min Rain = 0
KTH1 121043Z 28003KT 15/12 A3001 RMK A01 T01520118  RH  080%=      5-min Rain = 0
KTH1 121044Z 28003KT 15/12 A3001 RMK A01 T01520119  RH  081%=      5-min Rain = 0
KTH1 121045Z 27003KT 15/12 A3001 RMK A01 T01530120  RH  081%=      5-min Rain = 0
KTH1 121046Z 28003KT 15/12 A3001 RMK A01 T01540121  RH  081%=      5-min Rain = 0
KTH1 121047Z 28003KT 16/12 A3001 RMK A01 T01550119  RH  079%=      5-min Rain = 0
KTH1 121048Z 27003KT 16/12 A3001 RMK A01 T01560119  RH  079%=      5-min Rain = 0
KTH1 121049Z 27003KT 16/12 A3001 RMK A01 T01570120  RH  078%=      5-min Rain = 0
KTH1 121050Z 28003KT 16/12 A3001 RMK A01 T01580122  RH  079%=      5-min Rain = 0
KTH1 121051Z 28003KT 16/12 A3001 RMK A01 T01590121  RH  078%=      5-min Rain = 0
KTH1 121052Z 28002KT 16/12 A3001 RMK A01 T01590121  RH  078%=      5-min Rain = 0
KTH1 121053Z 28003KT 16/12 A3001 RMK A01 T01600124  RH  079%=      5-min Rain = 0
KTH1 121054Z 27002KT 16/13 A3001 RMK A01 T01600127  RH  081%=      5-min Rain = 0
KTH1 121055Z 28003KT 16/13 A3001 RMK A01 T01600128  RH  081%=      5-min Rain = 0
KTH1 121056Z 28003KT 16/13 A3001 RMK A01 T01600127  RH  080%=      5-min Rain = 0
KTH1 121057Z 28003KT 16/13 A3001 RMK A01 T01600126  RH  080%=      5-min Rain = 0
KTH1 121058Z 27002KT 16/13 A3001 RMK A01 T01610127  RH  080%=      5-min Rain = 0
KTH1 121059Z 28003KT 16/13 A3001 RMK A01 T01610126  RH  080%=      5-min Rain = 0
KTH1 121100Z 28002KT 16/12 A3001 RMK A01 T01610123  RH  078%=      5-min Rain = 0
KTH1 121101Z 27002KT 16/12 A3001 RMK A01 T01610124  RH  079%=      5-min Rain = 0
KTH1 121102Z 28003KT 16/13 A3001 RMK A01 T01610125  RH  079%=      5-min Rain = 0
KTH1 121103Z 27002KT 16/13 A3001 RMK A01 T01610127  RH  080%=      5-min Rain = 0
KTH1 121104Z 27003KT 16/13 A3001 RMK A01 T01620128  RH  080%=      5-min Rain = 0
KTH1 121105Z 28003KT 16/13 A3001 RMK A01 T01620127  RH  080%=      5-min Rain = 0
KTH1 121106Z 26002KT 16/13 A3001 RMK A01 T01620125  RH  079%=      5-min Rain = 0
KTH1 121107Z 26002KT 16/13 A3001 RMK A01 T01620126  RH  079%=      5-min Rain = 0
KTH1 121108Z 27002KT 16/13 A3001 RMK A01 T01620128  RH  080%=      5-min Rain = 0
KTH1 121109Z 26003KT 16/13 A3001 RMK A01 T01620129  RH  081%=      5-min Rain = 0
KTH1 121110Z 25003KT 16/13 A3001 RMK A01 T01610126  RH  080%=      5-min Rain = 0
KTH1 121111Z 25003KT 16/12 A3001 RMK A01 T01600124  RH  079%=      5-min Rain = 0
KTH1 121112Z 25003KT 16/12 A3001 RMK A01 T01590124  RH  080%=      5-min Rain = 0
KTH1 121113Z 26004KT 16/13 A3001 RMK A01 T01580125  RH  081%=      5-min Rain = 0
KTH1 121114Z 26003KT 16/13 A3001 RMK A01 T01570125  RH  082%=      5-min Rain = 0
KTH1 121115Z 26003KT 16/13 A3001 RMK A01 T01560126  RH  082%=      5-min Rain = 0
KTH1 121116Z 26003KT 16/13 A3001 RMK A01 T01560126  RH  082%=      5-min Rain = 0
KTH1 121117Z 26003KT 16/13 A3001 RMK A01 T01560127  RH  083%=      5-min Rain = 0
KTH1 121118Z 26003KT 16/13 A3001 RMK A01 T01560128  RH  083%=      5-min Rain = 0
KTH1 121119Z 26003KT 16/13 A3001 RMK A01 T01560128  RH  084%=      5-min Rain = 0
KTH1 121120Z 26003KT 16/13 A3001 RMK A01 T01560129  RH  084%=      5-min Rain = 0
KTH1 121121Z 26003KT 16/13 A3001 RMK A01 T01570130  RH  084%=      5-min Rain = 0
KTH1 121122Z 26003KT 16/13 A3001 RMK A01 T01570129  RH  083%=      5-min Rain = 0
KTH1 121123Z 27003KT 16/13 A3001 RMK A01 T01570130  RH  084%=      5-min Rain = 0
KTH1 121124Z 27003KT 16/13 A3001 RMK A01 T01570130  RH  084%=      5-min Rain = 0
KTH1 121125Z 27003KT 16/13 A3001 RMK A01 T01570129  RH  083%=      5-min Rain = 0
KTH1 121126Z 27003KT 16/13 A3001 RMK A01 T01570129  RH  083%=      5-min Rain = 0
KTH1 121127Z 26003KT 16/13 A3001 RMK A01 T01570130  RH  084%=      5-min Rain = 0
KTH1 121128Z 26003KT 16/13 A3001 RMK A01 T01570128  RH  083%=      5-min Rain = 0
KTH1 121129Z 26002KT 16/13 A3001 RMK A01 T01570129  RH  083%=      5-min Rain = 0
KTH1 121130Z 27003KT 16/13 A3001 RMK A01 T01570128  RH  082%=      5-min Rain = 0
KTH1 121131Z 26003KT 16/13 A3001 RMK A01 T01570127  RH  082%=      5-min Rain = 0
KTH1 121132Z 27003KT 16/13 A3001 RMK A01 T01570127  RH  083%=      5-min Rain = 0
KTH1 121133Z 26003KT 16/13 A3001 RMK A01 T01560128  RH  083%=      5-min Rain = 0
KTH1 121134Z 26004KT 16/13 A3001 RMK A01 T01560129  RH  084%=      5-min Rain = 0
KTH1 121135Z 26004KT 16/13 A3001 RMK A01 T01560130  RH  085%=      5-min Rain = 0
KTH1 121136Z 26003KT 16/13 A3001 RMK A01 T01560130  RH  085%=      5-min Rain = 0
KTH1 121137Z 26004KT 16/13 A3001 RMK A01 T01560130  RH  085%=      5-min Rain = 0
KTH1 121138Z 27004KT 16/13 A3001 RMK A01 T01550129  RH  084%=      5-min Rain = 0
KTH1 121139Z 26003KT 16/13 A3001 RMK A01 T01550129  RH  084%=      5-min Rain = 0
KTH1 121140Z 26004KT 15/13 A3001 RMK A01 T01540129  RH  085%=      5-min Rain = 0
KTH1 121141Z 26004KT 16/13 A3001 RMK A01 T01550128  RH  084%=      5-min Rain = 0
KTH1 121142Z 26004KT 16/13 A3001 RMK A01 T01550127  RH  084%=      5-min Rain = 0
KTH1 121143Z 27004KT 15/13 A3001 RMK A01 T01540127  RH  084%=      5-min Rain = 0
KTH1 121144Z 26004KT 15/13 A3001 RMK A01 T01540126  RH  083%=      5-min Rain = 0
KTH1 121145Z 26004KT 15/13 A3001 RMK A01 T01540127  RH  083%=      5-min Rain = 0
KTH1 121146Z 27004KT 16/13 A3001 RMK A01 T01550126  RH  083%=      5-min Rain = 0
KTH1 121147Z 26003KT 16/13 A3001 RMK A01 T01550126  RH  083%=      5-min Rain = 0
KTH1 121148Z 27004KT 16/13 A3001 RMK A01 T01550125  RH  082%=      5-min Rain = 0
KTH1 121149Z 27003KT 16/13 A3001 RMK A01 T01560125  RH  082%=      5-min Rain = 0
KTH1 121150Z 27003KT 16/13 A3001 RMK A01 T01560125  RH  082%=      5-min Rain = 0
KTH1 121151Z 27003KT 16/13 A3001 RMK A01 T01560126  RH  083%=      5-min Rain = 0
KTH1 121152Z 27003KT 16/13 A3001 RMK A01 T01560126  RH  082%=      5-min Rain = 0
KTH1 121153Z 27003KT 16/13 A3001 RMK A01 T01560126  RH  082%=      5-min Rain = 0
KTH1 121154Z 26003KT 16/13 A3001 RMK A01 T01570127  RH  082%=      5-min Rain = 0
KTH1 121155Z 26003KT 16/13 A3001 RMK A01 T01560128  RH  083%=      5-min Rain = 0
KTH1 121156Z 27003KT 16/13 A3001 RMK A01 T01560126  RH  082%=      5-min Rain = 0
KTH1 121157Z 27003KT 16/13 A3001 RMK A01 T01560128  RH  083%=      5-min Rain = 0
KTH1 121158Z 27004KT 16/13 A3001 RMK A01 T01570129  RH  083%=      5-min Rain = 0
KTH1 121159Z 27004KT 16/13 A3001 RMK A01 T01570127  RH  082%=      5-min Rain = 0
KTH1 121200Z 26003KT 16/13 A3001 RMK A01 T01570126  RH  082%=      5-min Rain = 0
KTH1 121201Z 27003KT 16/13 A3001 RMK A01 T01570127  RH  082%=      5-min Rain = 0
KTH1 121202Z 27003KT 16/13 A3001 RMK A01 T01570126  RH  082%=      5-min Rain = 0
KTH1 121203Z 27002KT 16/12 A3001 RMK A01 T01570124  RH  081%=      5-min Rain = 0
KTH1 121204Z 27003KT 16/13 A3001 RMK A01 T01570125  RH  082%=      5-min Rain = 0
KTH1 121205Z 27003KT 16/13 A3001 RMK A01 T01570126  RH  082%=      5-min Rain = 0
KTH1 121206Z 27003KT 16/13 A3001 RMK A01 T01570126  RH  082%=      5-min Rain = 0
KTH1 121207Z 27003KT 16/13 A3001 RMK A01 T01570126  RH  082%=      5-min Rain = 0
KTH1 121208Z 28003KT 16/13 A3001 RMK A01 T01580127  RH  082%=      5-min Rain = 0
KTH1 121209Z 27003KT 16/13 A3001 RMK A01 T01580127  RH  082%=      5-min Rain = 0
KTH1 121210Z 27003KT 16/13 A3001 RMK A01 T01580127  RH  082%=      5-min Rain = 0
KTH1 121211Z 27003KT 16/13 A3001 RMK A01 T01580127  RH  082%=      5-min Rain = 0
KTH1 121212Z 27003KT 16/13 A3001 RMK A01 T01590127  RH  081%=      5-min Rain = 0
KTH1 121213Z 27003KT 16/13 A3001 RMK A01 T01580126  RH  081%=      5-min Rain = 0
KTH1 121214Z 27003KT 16/13 A3001 RMK A01 T01590126  RH  081%=      5-min Rain = 0
KTH1 121215Z 27002KT 16/13 A3001 RMK A01 T01590128  RH  081%=      5-min Rain = 0
KTH1 121216Z 27003KT 16/13 A3001 RMK A01 T01600129  RH  082%=      5-min Rain = 0
KTH1 121217Z 27003KT 16/13 A3001 RMK A01 T01600129  RH  082%=      5-min Rain = 0
KTH1 121218Z 27003KT 16/13 A3001 RMK A01 T01600127  RH  081%=      5-min Rain = 0
KTH1 121219Z 27003KT 16/13 A3001 RMK A01 T01600128  RH  082%=      5-min Rain = 0
KTH1 121220Z 26003KT 16/13 A3001 RMK A01 T01600128  RH  081%=      5-min Rain = 0
KTH1 121221Z 27003KT 16/13 A3001 RMK A01 T01600128  RH  081%=      5-min Rain = 0
KTH1 121222Z 26003KT 16/13 A3001 RMK A01 T01600129  RH  082%=      5-min Rain = 0
KTH1 121223Z 26004KT 16/13 A3001 RMK A01 T01590128  RH  082%=      5-min Rain = 0
KTH1 121224Z 26004KT 16/13 A3002 RMK A01 T01590127  RH  081%=      5-min Rain = 0
KTH1 121225Z 27004KT 16/13 A3002 RMK A01 T01590128  RH  082%=      5-min Rain = 0
KTH1 121226Z 26004KT 16/13 A3002 RMK A01 T01590128  RH  082%=      5-min Rain = 0
KTH1 121227Z 26004KT 16/13 A3002 RMK A01 T01590128  RH  082%=      5-min Rain = 0
KTH1 121228Z 26004KT 16/13 A3002 RMK A01 T01590127  RH  081%=      5-min Rain = 0
KTH1 121229Z 27004KT 16/13 A3002 RMK A01 T01580127  RH  082%=      5-min Rain = 0
KTH1 121230Z 26004KT 16/13 A3002 RMK A01 T01580127  RH  082%=      5-min Rain = 0
KTH1 121231Z 26004KT 16/13 A3002 RMK A01 T01580126  RH  081%=      5-min Rain = 0
KTH1 121232Z 27004KT 16/13 A3002 RMK A01 T01580126  RH  081%=      5-min Rain = 0
KTH1 121233Z 26003KT 16/13 A3002 RMK A01 T01580127  RH  082%=      5-min Rain = 0
KTH1 121234Z 26003KT 16/13 A3002 RMK A01 T01570127  RH  082%=      5-min Rain = 0
KTH1 121235Z 27003KT 16/13 A3002 RMK A01 T01570127  RH  082%=      5-min Rain = 0
KTH1 121236Z 27003KT 16/13 A3002 RMK A01 T01570127  RH  082%=      5-min Rain = 0
KTH1 121237Z 26002KT 16/13 A3002 RMK A01 T01570127  RH  082%=      5-min Rain = 0
KTH1 121238Z 27003KT 16/13 A3002 RMK A01 T01570127  RH  082%=      5-min Rain = 0
KTH1 121239Z 26003KT 16/13 A3002 RMK A01 T01570128  RH  082%=      5-min Rain = 0
KTH1 121240Z 27003KT 16/13 A3002 RMK A01 T01570127  RH  082%=      5-min Rain = 0
KTH1 121241Z 26002KT 16/13 A3002 RMK A01 T01570127  RH  082%=      5-min Rain = 0
KTH1 121242Z 27003KT 16/13 A3002 RMK A01 T01570127  RH  082%=      5-min Rain = 0
KTH1 121243Z 26003KT 16/13 A3002 RMK A01 T01570127  RH  082%=      5-min Rain = 0
KTH1 121244Z 27002KT 16/13 A3002 RMK A01 T01570127  RH  082%=      5-min Rain = 0
KTH1 121245Z 26003KT 16/13 A3002 RMK A01 T01570127  RH  082%=      5-min Rain = 0
KTH1 121246Z 26003KT 16/13 A3002 RMK A01 T01570127  RH  082%=      5-min Rain = 0
KTH1 121247Z 27003KT 16/13 A3002 RMK A01 T01580127  RH  082%=      5-min Rain = 0
KTH1 121248Z 26003KT 16/13 A3002 RMK A01 T01580128  RH  082%=      5-min Rain = 0
KTH1 121249Z 26003KT 16/13 A3002 RMK A01 T01580128  RH  082%=      5-min Rain = 0
KTH1 121250Z 26003KT 16/13 A3002 RMK A01 T01580127  RH  082%=      5-min Rain = 0
KTH1 121251Z 27002KT 16/13 A3002 RMK A01 T01590127  RH  081%=      5-min Rain = 0
KTH1 121252Z 26003KT 16/13 A3002 RMK A01 T01590127  RH  081%=      5-min Rain = 0
KTH1 121253Z 27003KT 16/13 A3002 RMK A01 T01590127  RH  081%=      5-min Rain = 0
KTH1 121254Z 27003KT 16/13 A3002 RMK A01 T01590126  RH  080%=      5-min Rain = 0
KTH1 121255Z 27003KT 16/13 A3002 RMK A01 T01600127  RH  081%=      5-min Rain = 0
KTH1 121256Z 27003KT 16/13 A3002 RMK A01 T01600125  RH  080%=      5-min Rain = 0
KTH1 121257Z 27002KT 16/13 A3002 RMK A01 T01610125  RH  079%=      5-min Rain = 0
KTH1 121258Z 26003KT 16/13 A3002 RMK A01 T01610127  RH  080%=      5-min Rain = 0
KTH1 121259Z 27003KT 16/13 A3002 RMK A01 T01620128  RH  081%=      5-min Rain = 0
KTH1 121300Z 26003KT 16/13 A3002 RMK A01 T01620130  RH  081%=      5-min Rain = 0
KTH1 121301Z 26003KT 16/13 A3002 RMK A01 T01620129  RH  081%=      5-min Rain = 0
KTH1 121302Z 26004KT 16/13 A3002 RMK A01 T01630129  RH  081%=      5-min Rain = 0
KTH1 121303Z 26004KT 16/13 A3002 RMK A01 T01630132  RH  082%=      5-min Rain = 0
KTH1 121304Z 26004KT 16/13 A3002 RMK A01 T01630129  RH  080%=      5-min Rain = 0
KTH1 121305Z 26004KT 16/13 A3002 RMK A01 T01630127  RH  079%=      5-min Rain = 0
KTH1 121306Z 25005KT 16/13 A3002 RMK A01 T01630127  RH  079%=      5-min Rain = 0
KTH1 121307Z 25005KT 16/13 A3002 RMK A01 T01630126  RH  079%=      5-min Rain = 0
KTH1 121308Z 25005KT 16/13 A3002 RMK A01 T01630125  RH  078%=      5-min Rain = 0
KTH1 121309Z 25005KT 16/12 A3002 RMK A01 T01620124  RH  078%=      5-min Rain = 0
KTH1 121310Z 25005KT 16/13 A3002 RMK A01 T01620125  RH  078%=      5-min Rain = 0
KTH1 121311Z 25005KT 16/12 A3002 RMK A01 T01630122  RH  077%=      5-min Rain = 0
KTH1 121312Z 25005KT 16/12 A3002 RMK A01 T01620121  RH  076%=      5-min Rain = 0
KTH1 121313Z 25004KT 16/12 A3002 RMK A01 T01630121  RH  076%=      5-min Rain = 0
KTH1 121314Z 25004KT 16/12 A3002 RMK A01 T01630120  RH  076%=      5-min Rain = 0
KTH1 121315Z 25004KT 16/12 A3002 RMK A01 T01630121  RH  076%=      5-min Rain = 0
KTH1 121316Z 25004KT 16/12 A3002 RMK A01 T01630121  RH  076%=      5-min Rain = 0
KTH1 121317Z 25003KT 16/12 A3002 RMK A01 T01630122  RH  077%=      5-min Rain = 0
KTH1 121318Z 25003KT 16/12 A3002 RMK A01 T01640124  RH  077%=      5-min Rain = 0
KTH1 121319Z 25003KT 16/13 A3002 RMK A01 T01640125  RH  078%=      5-min Rain = 0
KTH1 121320Z 24003KT 17/13 A3002 RMK A01 T01650125  RH  077%=      5-min Rain = 0
KTH1 121321Z 25003KT 17/12 A3002 RMK A01 T01660124  RH  077%=      5-min Rain = 0
KTH1 121322Z 26003KT 17/13 A3002 RMK A01 T01660125  RH  077%=      5-min Rain = 0
KTH1 121323Z 26003KT 17/13 A3002 RMK A01 T01670127  RH  077%=      5-min Rain = 0
KTH1 121324Z 26004KT 17/13 A3002 RMK A01 T01680128  RH  077%=      5-min Rain = 0
KTH1 121325Z 25004KT 17/13 A3002 RMK A01 T01690127  RH  076%=      5-min Rain = 0
KTH1 121326Z 26004KT 17/13 A3002 RMK A01 T01700128  RH  076%=      5-min Rain = 0
KTH1 121327Z 26004KT 17/13 A3002 RMK A01 T01700127  RH  075%=      5-min Rain = 0
KTH1 121328Z 26003KT 17/13 A3002 RMK A01 T01710127  RH  075%=      5-min Rain = 0
KTH1 121329Z 26003KT 17/13 A3002 RMK A01 T01720128  RH  075%=      5-min Rain = 0
KTH1 121330Z 26002KT 17/13 A3002 RMK A01 T01730128  RH  075%=      5-min Rain = 0
KTH1 121331Z 26003KT 17/13 A3002 RMK A01 T01740128  RH  075%=      5-min Rain = 0
KTH1 121332Z 26003KT 17/13 A3002 RMK A01 T01740129  RH  074%=      5-min Rain = 0
KTH1 121333Z 26003KT 18/13 A3002 RMK A01 T01750130  RH  075%=      5-min Rain = 0
KTH1 121334Z 27002KT 18/13 A3002 RMK A01 T01750132  RH  075%=      5-min Rain = 0
KTH1 121335Z 27001KT 18/14 A3002 RMK A01 T01770135  RH  077%=      5-min Rain = 0
KTH1 121336Z 26002KT 18/14 A3002 RMK A01 T01780136  RH  077%=      5-min Rain = 0
KTH1 121337Z 27002KT 18/14 A3002 RMK A01 T01790135  RH  075%=      5-min Rain = 0
KTH1 121338Z 27002KT 18/14 A3002 RMK A01 T01800137  RH  076%=      5-min Rain = 0
KTH1 121339Z 27003KT 18/14 A3002 RMK A01 T01810137  RH  075%=      5-min Rain = 0
KTH1 121340Z 26002KT 18/14 A3002 RMK A01 T01820136  RH  074%=      5-min Rain = 0
KTH1 121341Z 27002KT 18/14 A3002 RMK A01 T01830137  RH  075%=      5-min Rain = 0
KTH1 121342Z 28002KT 18/14 A3002 RMK A01 T01830135  RH  073%=      5-min Rain = 0
KTH1 121343Z 27001KT 18/14 A3002 RMK A01 T01840137  RH  074%=      5-min Rain = 0
KTH1 121344Z 28002KT 19/14 A3002 RMK A01 T01850138  RH  074%=      5-min Rain = 0
KTH1 121345Z 27002KT 19/14 A3002 RMK A01 T01860136  RH  073%=      5-min Rain = 0
KTH1 121346Z 28002KT 19/14 A3002 RMK A01 T01870137  RH  073%=      5-min Rain = 0
KTH1 121347Z 28002KT 19/14 A3002 RMK A01 T01870136  RH  072%=      5-min Rain = 0
KTH1 121348Z 28002KT 19/14 A3002 RMK A01 T01870136  RH  072%=      5-min Rain = 0
KTH1 121349Z 27001KT 19/14 A3002 RMK A01 T01880137  RH  072%=      5-min Rain = 0
KTH1 121350Z 28002KT 19/14 A3002 RMK A01 T01890141  RH  074%=      5-min Rain = 0
KTH1 121351Z 28002KT 19/14 A3002 RMK A01 T01890140  RH  073%=      5-min Rain = 0
KTH1 121352Z 27001KT 19/14 A3002 RMK A01 T01900139  RH  072%=      5-min Rain = 0
KTH1 121353Z 29002KT 19/14 A3002 RMK A01 T01910139  RH  072%=      5-min Rain = 0
KTH1 121354Z 28002KT 19/14 A3002 RMK A01 T01910139  RH  071%=      5-min Rain = 0
KTH1 121355Z 29002KT 19/14 A3002 RMK A01 T01920140  RH  072%=      5-min Rain = 0
KTH1 121356Z 30002KT 19/14 A3002 RMK A01 T01920141  RH  072%=      5-min Rain = 0
KTH1 121357Z 30002KT 19/14 A3002 RMK A01 T01930142  RH  072%=      5-min Rain = 0
KTH1 121358Z 30001KT 19/14 A3002 RMK A01 T01940141  RH  071%=      5-min Rain = 0
KTH1 121359Z 30001KT 20/14 A3002 RMK A01 T01950143  RH  072%=      5-min Rain = 0
KTH1 121400Z 30001KT 20/14 A3002 RMK A01 T01960144  RH  072%=      5-min Rain = 0
KTH1 121401Z 31002KT 20/14 A3002 RMK A01 T01970143  RH  071%=      5-min Rain = 0
KTH1 121402Z 31002KT 20/14 A3002 RMK A01 T01980141  RH  070%=      5-min Rain = 0
KTH1 121403Z 30003KT 20/14 A3002 RMK A01 T01980138  RH  068%=      5-min Rain = 0
KTH1 121404Z 29003KT 20/14 A3002 RMK A01 T02000135  RH  066%=      5-min Rain = 0
KTH1 121405Z 30003KT 20/14 A3002 RMK A01 T02000137  RH  067%=      5-min Rain = 0
KTH1 121406Z 29003KT 20/14 A3002 RMK A01 T02020138  RH  067%=      5-min Rain = 0
KTH1 121407Z 29003KT 20/14 A3002 RMK A01 T02030138  RH  066%=      5-min Rain = 0
KTH1 121408Z 29003KT 20/14 A3002 RMK A01 T02040138  RH  066%=      5-min Rain = 0
KTH1 121409Z 29003KT 21/14 A3002 RMK A01 T02050140  RH  066%=      5-min Rain = 0
KTH1 121410Z 29003KT 21/14 A3002 RMK A01 T02070137  RH  065%=      5-min Rain = 0
KTH1 121411Z 30003KT 21/14 A3002 RMK A01 T02080137  RH  064%=      5-min Rain = 0
KTH1 121412Z 28002KT 21/14 A3002 RMK A01 T02090138  RH  064%=      5-min Rain = 0
KTH1 121413Z 28002KT 21/14 A3002 RMK A01 T02100142  RH  065%=      5-min Rain = 0
KTH1 121414Z 28003KT 21/14 A3002 RMK A01 T02110140  RH  064%=      5-min Rain = 0
KTH1 121415Z 29003KT 21/14 A3002 RMK A01 T02120136  RH  062%=      5-min Rain = 0
KTH1 121416Z 29003KT 21/14 A3002 RMK A01 T02120138  RH  063%=      5-min Rain = 0
KTH1 121417Z 30003KT 21/14 A3002 RMK A01 T02130141  RH  063%=      5-min Rain = 0
KTH1 121418Z 29003KT 21/14 A3002 RMK A01 T02140137  RH  062%=      5-min Rain = 0
KTH1 121419Z 29002KT 22/14 A3002 RMK A01 T02150141  RH  063%=      5-min Rain = 0
KTH1 121420Z 29003KT 22/14 A3002 RMK A01 T02160144  RH  064%=      5-min Rain = 0
KTH1 121421Z 27002KT 22/14 A3002 RMK A01 T02170142  RH  062%=      5-min Rain = 0
KTH1 121422Z 26002KT 22/14 A3002 RMK A01 T02180139  RH  061%=      5-min Rain = 0
KTH1 121423Z 28002KT 22/14 A3002 RMK A01 T02190139  RH  061%=      5-min Rain = 0
KTH1 121424Z 28002KT 22/14 A3002 RMK A01 T02190143  RH  062%=      5-min Rain = 0
KTH1 121425Z 27002KT 22/14 A3002 RMK A01 T02210140  RH  060%=      5-min Rain = 0
KTH1 121426Z 26002KT 22/14 A3002 RMK A01 T02210144  RH  061%=      5-min Rain = 0
KTH1 121427Z 28002KT 22/15 A3002 RMK A01 T02230146  RH  062%=      5-min Rain = 0
KTH1 121428Z 28003KT 22/14 A3002 RMK A01 T02240142  RH  060%=      5-min Rain = 0
KTH1 121429Z 29003KT 23/14 A3002 RMK A01 T02250144  RH  060%=      5-min Rain = 0
KTH1 121430Z 29003KT 23/14 A3002 RMK A01 T02270142  RH  059%=      5-min Rain = 0
KTH1 121431Z 29005KT 23/14 A3002 RMK A01 T02270142  RH  059%=      5-min Rain = 0
KTH1 121432Z 29005KT 23/14 A3002 RMK A01 T02280143  RH  059%=      5-min Rain = 0
KTH1 121433Z 28004KT 23/14 A3002 RMK A01 T02300139  RH  057%=      5-min Rain = 0
KTH1 121434Z 29003KT 23/14 A3002 RMK A01 T02310143  RH  058%=      5-min Rain = 0
KTH1 121435Z 31004KT 23/14 A3002 RMK A01 T02320141  RH  057%=      5-min Rain = 0
KTH1 121436Z 31004KT 23/15 A3002 RMK A01 T02330146  RH  058%=      5-min Rain = 0
KTH1 121437Z 30004KT 23/14 A3002 RMK A01 T02340143  RH  056%=      5-min Rain = 0
KTH1 121438Z 29004KT 24/14 A3002 RMK A01 T02350138  RH  055%=      5-min Rain = 0
KTH1 121439Z 29004KT 24/14 A3002 RMK A01 T02350141  RH  055%=      5-min Rain = 0
KTH1 121440Z 30003KT 24/14 A3002 RMK A01 T02360142  RH  055%=      5-min Rain = 0
KTH1 121441Z 30004KT 24/14 A3002 RMK A01 T02370140  RH  055%=      5-min Rain = 0
KTH1 121442Z 30004KT 24/14 A3002 RMK A01 T02380144  RH  056%=      5-min Rain = 0
KTH1 121443Z 30006KT 24/14 A3002 RMK A01 T02380143  RH  055%=      5-min Rain = 0
KTH1 121444Z 30005KT 24/14 A3002 RMK A01 T02390143  RH  055%=      5-min Rain = 0
KTH1 121445Z 31005KT 24/14 A3002 RMK A01 T02400136  RH  052%=      5-min Rain = 0
KTH1 121446Z 29005KT 24/14 A3002 RMK A01 T02400135  RH  052%=      5-min Rain = 0
KTH1 121447Z 29005KT 24/14 A3002 RMK A01 T02410141  RH  054%=      5-min Rain = 0
KTH1 121448Z 30005KT 24/14 A3002 RMK A01 T02410140  RH  053%=      5-min Rain = 0
KTH1 121449Z 31005KT 24/14 A3002 RMK A01 T02410140  RH  053%=      5-min Rain = 0
KTH1 121450Z 31005KT 24/14 A3002 RMK A01 T02420137  RH  052%=      5-min Rain = 0
KTH1 121451Z 31006KT 24/14 A3002 RMK A01 T02420137  RH  052%=      5-min Rain = 0
KTH1 121452Z 31004KT 24/14 A3002 RMK A01 T02430136  RH  051%=      5-min Rain = 0
KTH1 121453Z 30005KT 24/14 A3002 RMK A01 T02430137  RH  051%=      5-min Rain = 0
KTH1 121454Z 31005KT 24/14 A3002 RMK A01 T02430136  RH  051%=      5-min Rain = 0
KTH1 121455Z 31005KT 24/14 A3002 RMK A01 T02430136  RH  051%=      5-min Rain = 0
KTH1 121456Z 31004KT 24/14 A3002 RMK A01 T02440136  RH  051%=      5-min Rain = 0
KTH1 121457Z 31003KT 24/14 A3001 RMK A01 T02440141  RH  052%=      5-min Rain = 0
KTH1 121458Z 30004KT 25/14 A3001 RMK A01 T02450142  RH  052%=      5-min Rain = 0
KTH1 121459Z 30004KT 25/14 A3001 RMK A01 T02460142  RH  052%=      5-min Rain = 0
KTH1 121500Z 30004KT 25/14 A3001 RMK A01 T02480138  RH  051%=      5-min Rain = 0
KTH1 121501Z 30004KT 25/14 A3001 RMK A01 T02490139  RH  051%=      5-min Rain = 0
KTH1 121502Z 30004KT 25/14 A3001 RMK A01 T02490141  RH  051%=      5-min Rain = 0
KTH1 121503Z 30004KT 25/14 A3001 RMK A01 T02500137  RH  050%=      5-min Rain = 0
KTH1 121504Z 30004KT 25/14 A3001 RMK A01 T02490137  RH  050%=      5-min Rain = 0
KTH1 121505Z 32002KT 25/14 A3001 RMK A01 T02490137  RH  050%=      5-min Rain = 0
KTH1 121506Z 30003KT 25/14 A3001 RMK A01 T02500135  RH  049%=      5-min Rain = 0
KTH1 121507Z 32003KT 25/14 A3001 RMK A01 T02500136  RH  049%=      5-min Rain = 0
KTH1 121508Z 29003KT 25/14 A3001 RMK A01 T02510138  RH  050%=      5-min Rain = 0
KTH1 121509Z 28003KT 25/14 A3001 RMK A01 T02520137  RH  049%=      5-min Rain = 0
KTH1 121510Z 27003KT 25/13 A3001 RMK A01 T02520133  RH  047%=      5-min Rain = 0
KTH1 121511Z 27003KT 25/14 A3001 RMK A01 T02530136  RH  048%=      5-min Rain = 0
KTH1 121512Z 28003KT 25/14 A3001 RMK A01 T02540137  RH  048%=      5-min Rain = 0
KTH1 121513Z 28002KT 26/14 A3001 RMK A01 T02560138  RH  048%=      5-min Rain = 0
KTH1 121514Z 28003KT 26/14 A3001 RMK A01 T02570141  RH  049%=      5-min Rain = 0
KTH1 121515Z 28003KT 26/13 A3001 RMK A01 T02590133  RH  046%=      5-min Rain = 0
KTH1 121516Z 32002KT 26/14 A3001 RMK A01 T02580139  RH  048%=      5-min Rain = 0
KTH1 121517Z 30003KT 26/14 A3001 RMK A01 T02590135  RH  046%=      5-min Rain = 0
KTH1 121518Z 30003KT 26/13 A3001 RMK A01 T02590132  RH  046%=      5-min Rain = 0
KTH1 121519Z 30003KT 26/13 A3001 RMK A01 T02590132  RH  046%=      5-min Rain = 0
KTH1 121520Z 28003KT 26/14 A3001 RMK A01 T02590137  RH  047%=      5-min Rain = 0
KTH1 121521Z 27002KT 26/13 A3001 RMK A01 T02590133  RH  046%=      5-min Rain = 0
KTH1 121522Z 26002KT 26/13 A3001 RMK A01 T02590131  RH  045%=      5-min Rain = 0
KTH1 121523Z 31003KT 26/13 A3001 RMK A01 T02590134  RH  046%=      5-min Rain = 0
KTH1 121524Z 30004KT 26/13 A3001 RMK A01 T02590134  RH  046%=      5-min Rain = 0
KTH1 121525Z 31002KT 26/13 A3001 RMK A01 T02580132  RH  046%=      5-min Rain = 0
KTH1 121526Z 29002KT 26/13 A3001 RMK A01 T02580126  RH  044%=      5-min Rain = 0
KTH1 121527Z 30004KT 26/13 A3001 RMK A01 T02570130  RH  045%=      5-min Rain = 0
KTH1 121528Z 31004KT 26/13 A3001 RMK A01 T02570129  RH  045%=      5-min Rain = 0
KTH1 121529Z 32002KT 26/13 A3001 RMK A01 T02570133  RH  046%=      5-min Rain = 0
KTH1 121530Z 28002KT 26/13 A3001 RMK A01 T02580134  RH  046%=      5-min Rain = 0
KTH1 121531Z 23001KT 26/13 A3001 RMK A01 T02580130  RH  045%=      5-min Rain = 0
KTH1 121532Z 36001KT 26/13 A3001 RMK A01 T02590129  RH  044%=      5-min Rain = 0
KTH1 121533Z 31002KT 26/14 A3001 RMK A01 T02600136  RH  046%=      5-min Rain = 0
KTH1 121534Z 31004KT 26/13 A3001 RMK A01 T02610133  RH  045%=      5-min Rain = 0
KTH1 121535Z 33003KT 26/13 A3001 RMK A01 T02620132  RH  045%=      5-min Rain = 0
KTH1 121536Z 33002KT 26/13 A3001 RMK A01 T02610133  RH  045%=      5-min Rain = 0
KTH1 121537Z 36001KT 26/13 A3001 RMK A01 T02620127  RH  043%=      5-min Rain = 0
KTH1 121538Z 29002KT 26/13 A3001 RMK A01 T02620131  RH  044%=      5-min Rain = 0
KTH1 121539Z 27003KT 26/13 A3001 RMK A01 T02620129  RH  044%=      5-min Rain = 0
KTH1 121540Z 28004KT 26/14 A3001 RMK A01 T02620137  RH  046%=      5-min Rain = 0
KTH1 121541Z 27003KT 26/14 A3001 RMK A01 T02640135  RH  045%=      5-min Rain = 0
KTH1 121542Z 25004KT 26/13 A3001 RMK A01 T02640132  RH  044%=      5-min Rain = 0
KTH1 121543Z 24005KT 26/13 A3001 RMK A01 T02640130  RH  044%=      5-min Rain = 0
KTH1 121544Z 26006KT 26/14 A3001 RMK A01 T02620135  RH  046%=      5-min Rain = 0
KTH1 121545Z 26004KT 26/14 A3001 RMK A01 T02610135  RH  045%=      5-min Rain = 0
KTH1 121546Z 27003KT 26/13 A3001 RMK A01 T02610130  RH  044%=      5-min Rain = 0
KTH1 121547Z 27003KT 26/13 A3001 RMK A01 T02600130  RH  044%=      5-min Rain = 0
KTH1 121548Z 28002KT 26/13 A3001 RMK A01 T02610130  RH  044%=      5-min Rain = 0
KTH1 121549Z 27003KT 26/13 A3001 RMK A01 T02610132  RH  045%=      5-min Rain = 0
KTH1 121550Z 26002KT 26/13 A3001 RMK A01 T02610132  RH  045%=      5-min Rain = 0
KTH1 121551Z 24002KT 26/13 A3001 RMK A01 T02620128  RH  044%=      5-min Rain = 0
KTH1 121552Z 26002KT 26/12 A3001 RMK A01 T02620124  RH  042%=      5-min Rain = 0
KTH1 121553Z 25002KT 26/13 A3001 RMK A01 T02610129  RH  044%=      5-min Rain = 0
KTH1 121554Z 28002KT 26/13 A3001 RMK A01 T02610133  RH  045%=      5-min Rain = 0
KTH1 121555Z 27003KT 26/13 A3001 RMK A01 T02620132  RH  045%=      5-min Rain = 0
KTH1 121556Z 29003KT 26/13 A3001 RMK A01 T02630129  RH  043%=      5-min Rain = 0
KTH1 121557Z 30003KT 26/13 A3001 RMK A01 T02640130  RH  044%=      5-min Rain = 0
KTH1 121558Z 31004KT 26/13 A3001 RMK A01 T02640134  RH  044%=      5-min Rain = 0
KTH1 121559Z 34005KT 27/13 A3001 RMK A01 T02650127  RH  042%=      5-min Rain = 0
KTH1 121600Z 35001KT 27/12 A3001 RMK A01 T02660122  RH  041%=      5-min Rain = 0
KTH1 121601Z 29003KT 27/13 A3001 RMK A01 T02650127  RH  042%=      5-min Rain = 0
KTH1 121602Z 27003KT 27/13 A3001 RMK A01 T02660125  RH  041%=      5-min Rain = 0
KTH1 121603Z 28003KT 27/13 A3001 RMK A01 T02660125  RH  042%=      5-min Rain = 0
KTH1 121604Z 31004KT 27/13 A3001 RMK A01 T02650129  RH  043%=      5-min Rain = 0
KTH1 121605Z 34004KT 27/13 A3001 RMK A01 T02660129  RH  043%=      5-min Rain = 0
KTH1 121606Z 32004KT 27/12 A3001 RMK A01 T02670122  RH  040%=      5-min Rain = 0
KTH1 121607Z 33002KT 27/12 A3001 RMK A01 T02670121  RH  040%=      5-min Rain = 0
KTH1 121608Z 30001KT 27/12 A3001 RMK A01 T02670121  RH  040%=      5-min Rain = 0
KTH1 121609Z 33001KT 27/12 A3001 RMK A01 T02670122  RH  041%=      5-min Rain = 0
KTH1 121610Z 29003KT 27/13 A3001 RMK A01 T02670126  RH  042%=      5-min Rain = 0
KTH1 121611Z 29005KT 27/13 A3001 RMK A01 T02680130  RH  043%=      5-min Rain = 0
KTH1 121612Z 28004KT 27/13 A3001 RMK A01 T02690131  RH  043%=      5-min Rain = 0
KTH1 121613Z 29003KT 27/13 A3001 RMK A01 T02690125  RH  041%=      5-min Rain = 0
KTH1 121614Z 32003KT 27/13 A3001 RMK A01 T02680130  RH  042%=      5-min Rain = 0
KTH1 121615Z 35004KT 27/12 A3001 RMK A01 T02690119  RH  039%=      5-min Rain = 0
KTH1 121616Z 33003KT 27/12 A3001 RMK A01 T02690124  RH  041%=      5-min Rain = 0
KTH1 121617Z 33004KT 27/12 A3001 RMK A01 T02700124  RH  040%=      5-min Rain = 0
KTH1 121618Z 35004KT 27/13 A3001 RMK A01 T02700125  RH  040%=      5-min Rain = 0
KTH1 121619Z 35004KT 27/13 A3001 RMK A01 T02700126  RH  041%=      5-min Rain = 0
KTH1 121620Z 00004KT 27/13 A3001 RMK A01 T02710125  RH  040%=      5-min Rain = 0
KTH1 121621Z 03002KT 27/12 A3001 RMK A01 T02710123  RH  040%=      5-min Rain = 0
KTH1 121622Z 01001KT 27/12 A3001 RMK A01 T02710123  RH  040%=      5-min Rain = 0
KTH1 121623Z 32002KT 27/13 A3001 RMK A01 T02720126  RH  040%=      5-min Rain = 0
KTH1 121624Z 25001KT 27/13 A3001 RMK A01 T02730130  RH  041%=      5-min Rain = 0
KTH1 121625Z 29002KT 27/13 A3001 RMK A01 T02740126  RH  040%=      5-min Rain = 0
KTH1 121626Z 30003KT 27/13 A3001 RMK A01 T02740128  RH  040%=      5-min Rain = 0
KTH1 121627Z 33002KT 27/13 A30 RMK A01 T02740127  RH  040%=      5-min Rain = 0
KTH1 121628Z 33003KT 27/13 A30 RMK A01 T02740126  RH  040%=      5-min Rain = 0
KTH1 121629Z 27004KT 27/14 A30 RMK A01 T02740135  RH  042%=      5-min Rain = 0
KTH1 121630Z 27004KT 28/14 A30 RMK A01 T02760135  RH  042%=      5-min Rain = 0
KTH1 121631Z 26004KT 28/13 A30 RMK A01 T02760129  RH  040%=      5-min Rain = 0
KTH1 121632Z 28002KT 28/13 A30 RMK A01 T02750128  RH  040%=      5-min Rain = 0
KTH1 121633Z 28003KT 27/13 A30 RMK A01 T02740131  RH  041%=      5-min Rain = 0
KTH1 121634Z 28002KT 27/13 A30 RMK A01 T02740133  RH  042%=      5-min Rain = 0
KTH1 121635Z 29001KT 28/13 A30 RMK A01 T02750132  RH  041%=      5-min Rain = 0
KTH1 121636Z 31003KT 28/13 A30 RMK A01 T02770130  RH  040%=      5-min Rain = 0
KTH1 121637Z 29002KT 28/13 A30 RMK A01 T02760127  RH  040%=      5-min Rain = 0
KTH1 121638Z 31003KT 28/13 A30 RMK A01 T02770131  RH  040%=      5-min Rain = 0
KTH1 121639Z 28003KT 28/13 A30 RMK A01 T02770134  RH  041%=      5-min Rain = 0
KTH1 121640Z 28002KT 28/13 A30 RMK A01 T02770133  RH  041%=      5-min Rain = 0
KTH1 121641Z 32002KT 28/13 A30 RMK A01 T02780127  RH  039%=      5-min Rain = 0
KTH1 121642Z 36003KT 28/13 A30 RMK A01 T02790129  RH  040%=      5-min Rain = 0
KTH1 121643Z 35003KT 28/13 A30 RMK A01 T02790127  RH  039%=      5-min Rain = 0
KTH1 121644Z 35005KT 28/13 A30 RMK A01 T02790126  RH  039%=      5-min Rain = 0
KTH1 121645Z 31004KT 28/12 A30 RMK A01 T02790123  RH  038%=      5-min Rain = 0
KTH1 121646Z 32003KT 28/13 A30 RMK A01 T02780127  RH  039%=      5-min Rain = 0
KTH1 121647Z 32003KT 28/12 A30 RMK A01 T02780123  RH  038%=      5-min Rain = 0
KTH1 121648Z 32006KT 28/13 A30 RMK A01 T02780129  RH  040%=      5-min Rain = 0
KTH1 121649Z 32005KT 28/13 A30 RMK A01 T02790129  RH  040%=      5-min Rain = 0
KTH1 121650Z 33005KT 28/13 A30 RMK A01 T02800129  RH  039%=      5-min Rain = 0
KTH1 121651Z 33005KT 28/13 A2999 RMK A01 T02810130  RH  039%=      5-min Rain = 0
KTH1 121652Z 35005KT 28/13 A2999 RMK A01 T02820128  RH  039%=      5-min Rain = 0
KTH1 121653Z 34002KT 28/12 A2999 RMK A01 T02820122  RH  037%=      5-min Rain = 0
KTH1 121654Z 34005KT 28/13 A2999 RMK A01 T02810128  RH  039%=      5-min Rain = 0
KTH1 121655Z 33003KT 28/12 A2999 RMK A01 T02820124  RH  037%=      5-min Rain = 0
KTH1 121656Z 31002KT 28/13 A2999 RMK A01 T02820125  RH  038%=      5-min Rain = 0
KTH1 121657Z 28003KT 28/13 A2999 RMK A01 T02820126  RH  038%=      5-min Rain = 0
KTH1 121658Z 28002KT 28/13 A2999 RMK A01 T02820130  RH  039%=      5-min Rain = 0
KTH1 121659Z 27001KT 28/13 A2999 RMK A01 T02840128  RH  038%=      5-min Rain = 0
KTH1 121700Z 28002KT 29/13 A2999 RMK A01 T02850129  RH  038%=      5-min Rain = 0
KTH1 121701Z 36002KT 29/12 A2999 RMK A01 T02850120  RH  036%=      5-min Rain = 0
KTH1 121702Z 33001KT 28/12 A2999 RMK A01 T02830119  RH  036%=      5-min Rain = 0
KTH1 121703Z 02004KT 28/12 A2999 RMK A01 T02820120  RH  037%=      5-min Rain = 0
KTH1 121704Z 02005KT 28/12 A2999 RMK A01 T02820122  RH  037%=      5-min Rain = 0
KTH1 121705Z 03004KT 28/12 A2999 RMK A01 T02830121  RH  037%=      5-min Rain = 0
KTH1 121706Z 03003KT 28/12 A2999 RMK A01 T02840118  RH  036%=      5-min Rain = 0
KTH1 121707Z 34005KT 28/12 A2999 RMK A01 T02840124  RH  037%=      5-min Rain = 0
KTH1 121708Z 34003KT 29/12 A2999 RMK A01 T02860118  RH  035%=      5-min Rain = 0
KTH1 121709Z 00004KT 29/12 A2999 RMK A01 T02860122  RH  036%=      5-min Rain = 0
KTH1 121710Z 35003KT 29/12 A2999 RMK A01 T02860123  RH  036%=      5-min Rain = 0
KTH1 121711Z 02004KT 29/13 A2999 RMK A01 T02870125  RH  037%=      5-min Rain = 0
KTH1 121712Z 03004KT 29/13 A2999 RMK A01 T02880127  RH  037%=      5-min Rain = 0
KTH1 121713Z 03005KT 29/12 A2999 RMK A01 T02890124  RH  036%=      5-min Rain = 0
KTH1 121714Z 03006KT 29/12 A2999 RMK A01 T02900124  RH  036%=      5-min Rain = 0
KTH1 121715Z 04003KT 29/12 A2999 RMK A01 T02900124  RH  036%=      5-min Rain = 0
KTH1 121716Z 03003KT 29/13 A2999 RMK A01 T02900127  RH  037%=      5-min Rain = 0
KTH1 121717Z 33005KT 29/13 A2999 RMK A01 T02910127  RH  036%=      5-min Rain = 0
KTH1 121718Z 35007KT 29/13 A2999 RMK A01 T02910127  RH  036%=      5-min Rain = 0
KTH1 121719Z 35005KT 29/13 A2999 RMK A01 T02920129  RH  037%=      5-min Rain = 0
KTH1 121720Z 34006KT 29/13 A2999 RMK A01 T02930126  RH  036%=      5-min Rain = 0
KTH1 121721Z 31003KT 29/12 A2999 RMK A01 T02920121  RH  035%=      5-min Rain = 0
KTH1 121722Z 35004KT 29/12 A2998 RMK A01 T02900122  RH  035%=      5-min Rain = 0
KTH1 121723Z 33005KT 29/12 A2998 RMK A01 T02890121  RH  035%=      5-min Rain = 0
KTH1 121724Z 34004KT 29/13 A2998 RMK A01 T02900127  RH  037%=      5-min Rain = 0
KTH1 121725Z 35005KT 29/12 A2998 RMK A01 T02910121  RH  035%=      5-min Rain = 0
KTH1 121726Z 35006KT 29/12 A2998 RMK A01 T02900119  RH  035%=      5-min Rain = 0
KTH1 121727Z 36005KT 29/12 A2998 RMK A01 T02890124  RH  036%=      5-min Rain = 0
KTH1 121728Z 36004KT 29/12 A2998 RMK A01 T02900122  RH  035%=      5-min Rain = 0
KTH1 121729Z 00003KT 29/12 A2998 RMK A01 T02900120  RH  035%=      5-min Rain = 0
KTH1 121730Z 03003KT 29/12 A2998 RMK A01 T02900120  RH  035%=      5-min Rain = 0
KTH1 121731Z 05003KT 29/12 A2998 RMK A01 T02900121  RH  035%=      5-min Rain = 0
KTH1 121732Z 01003KT 29/12 A2998 RMK A01 T02890123  RH  036%=      5-min Rain = 0
KTH1 121733Z 32003KT 29/13 A2998 RMK A01 T02910128  RH  037%=      5-min Rain = 0
KTH1 121734Z 34004KT 29/13 A2998 RMK A01 T02930128  RH  036%=      5-min Rain = 0
KTH1 121735Z 00005KT 29/12 A2998 RMK A01 T02930122  RH  035%=      5-min Rain = 0
KTH1 121736Z 01003KT 29/13 A2998 RMK A01 T02930125  RH  035%=      5-min Rain = 0
KTH1 121737Z 01004KT 29/12 A2998 RMK A01 T02930124  RH  035%=      5-min Rain = 0
KTH1 121738Z 34008KT 29/12 A2998 RMK A01 T02930123  RH  035%=      5-min Rain = 0
KTH1 121739Z 32007KT 29/13 A2998 RMK A01 T02930125  RH  036%=      5-min Rain = 0
KTH1 121740Z 31008KT 29/13 A2998 RMK A01 T02940125  RH  035%=      5-min Rain = 0
KTH1 121741Z 33006KT 29/13 A2998 RMK A01 T02940130  RH  036%=      5-min Rain = 0
KTH1 121742Z 34007KT 29/12 A2998 RMK A01 T02940119  RH  034%=      5-min Rain = 0
KTH1 121743Z 36004KT 29/12 A2998 RMK A01 T02940118  RH  034%=      5-min Rain = 0
KTH1 121744Z 31003KT 29/12 A2998 RMK A01 T02930119  RH  034%=      5-min Rain = 0
KTH1 121745Z 29001KT 29/12 A2997 RMK A01 T02930118  RH  034%=      5-min Rain = 0
KTH1 121746Z 33001KT 29/12 A2997 RMK A01 T02940118  RH  034%=      5-min Rain = 0
KTH1 121747Z 31002KT 30/12 A2997 RMK A01 T02950115  RH  033%=      5-min Rain = 0
KTH1 121748Z 32005KT 30/12 A2997 RMK A01 T02960121  RH  034%=      5-min Rain = 0
KTH1 121749Z 34006KT 30/12 A2997 RMK A01 T02950122  RH  034%=      5-min Rain = 0
KTH1 121750Z 35009KT 30/12 A2997 RMK A01 T02960121  RH  034%=      5-min Rain = 0
KTH1 121751Z 36007KT 30/12 A2997 RMK A01 T02960118  RH  033%=      5-min Rain = 0
KTH1 121752Z 35005KT 30/12 A2997 RMK A01 T02960122  RH  034%=      5-min Rain = 0
KTH1 121753Z 32005KT 30/12 A2997 RMK A01 T02960120  RH  034%=      5-min Rain = 0
KTH1 121754Z 33004KT 30/12 A2997 RMK A01 T02960119  RH  034%=      5-min Rain = 0
KTH1 121755Z 34003KT 30/12 A2997 RMK A01 T02960124  RH  035%=      5-min Rain = 0
KTH1 121756Z 36005KT 30/12 A2997 RMK A01 T02970124  RH  034%=      5-min Rain = 0
KTH1 121757Z 02006KT 30/12 A2997 RMK A01 T02970124  RH  034%=      5-min Rain = 0
KTH1 121758Z 03005KT 30/12 A2997 RMK A01 T02980119  RH  033%=      5-min Rain = 0
KTH1 121759Z 05004KT 30/12 A2997 RMK A01 T02960118  RH  033%=      5-min Rain = 0
KTH1 121800Z 06004KT 30/12 A2997 RMK A01 T02950123  RH  034%=      5-min Rain = 0
KTH1 121801Z 05005KT 30/12 A2997 RMK A01 T02960123  RH  035%=      5-min Rain = 0
KTH1 121802Z 05005KT 30/12 A2997 RMK A01 T02970119  RH  033%=      5-min Rain = 0
KTH1 121803Z 04003KT 30/12 A2997 RMK A01 T02970119  RH  033%=      5-min Rain = 0
KTH1 121804Z 05003KT 30/12 A2997 RMK A01 T02970115  RH  033%=      5-min Rain = 0
KTH1 121805Z 29002KT 30/12 A2997 RMK A01 T02970122  RH  034%=      5-min Rain = 0
KTH1 121806Z 29006KT 30/13 A2996 RMK A01 T02970128  RH  035%=      5-min Rain = 0
KTH1 121807Z 31006KT 30/12 A2996 RMK A01 T02980124  RH  034%=      5-min Rain = 0
KTH1 121808Z 33003KT 30/12 A2996 RMK A01 T02980120  RH  033%=      5-min Rain = 0
KTH1 121809Z 36003KT 30/12 A2996 RMK A01 T02980120  RH  033%=      5-min Rain = 0
KTH1 121810Z 03002KT 30/12 A2996 RMK A01 T02980115  RH  032%=      5-min Rain = 0
KTH1 121811Z 01002KT 30/12 A2996 RMK A01 T02970116  RH  033%=      5-min Rain = 0
KTH1 121812Z 36002KT 30/12 A2996 RMK A01 T02970117  RH  033%=      5-min Rain = 0
KTH1 121813Z 31003KT 30/12 A2996 RMK A01 T02970119  RH  033%=      5-min Rain = 0
KTH1 121814Z 31004KT 30/13 A2996 RMK A01 T02980127  RH  035%=      5-min Rain = 0
KTH1 121815Z 35006KT 30/13 A2996 RMK A01 T02990127  RH  035%=      5-min Rain = 0
KTH1 121816Z 34007KT 30/12 A2996 RMK A01 T03010121  RH  033%=      5-min Rain = 0
KTH1 121817Z 32005KT 30/12 A2996 RMK A01 T03010121  RH  033%=      5-min Rain = 0
KTH1 121818Z 31007KT 30/12 A2996 RMK A01 T03020123  RH  033%=      5-min Rain = 0
KTH1 121819Z 30008KT 30/13 A2996 RMK A01 T03030128  RH  034%=      5-min Rain = 0
KTH1 121820Z 30008KT 30/12 A2996 RMK A01 T03030124  RH  033%=      5-min Rain = 0
KTH1 121821Z 28006KT 30/12 A2996 RMK A01 T03020117  RH  032%=      5-min Rain = 0
KTH1 121822Z 27005KT 30/12 A2995 RMK A01 T03000119  RH  033%=      5-min Rain = 0
KTH1 121823Z 29005KT 30/13 A2995 RMK A01 T02990127  RH  035%=      5-min Rain = 0
KTH1 121824Z 26002KT 30/13 A2995 RMK A01 T03000134  RH  036%=      5-min Rain = 0
KTH1 121825Z 31005KT 30/13 A2995 RMK A01 T03020131  RH  035%=      5-min Rain = 0
KTH1 121826Z 32008KT 30/13 A2995 RMK A01 T03030127  RH  034%=      5-min Rain = 0
KTH1 121827Z 33008KT 30/12 A2995 RMK A01 T03030121  RH  033%=      5-min Rain = 0
KTH1 121828Z 33008KT 30/12 A2995 RMK A01 T03020121  RH  033%=      5-min Rain = 0
KTH1 121829Z 31004KT 30/12 A2995 RMK A01 T03010115  RH  032%=      5-min Rain = 0
KTH1 121830Z 30004KT 30/12 A2995 RMK A01 T03000121  RH  033%=      5-min Rain = 0
KTH1 121831Z 30005KT 30/13 A2995 RMK A01 T03010131  RH  035%=      5-min Rain = 0
KTH1 121832Z 29006KT 30/13 A2995 RMK A01 T03020129  RH  034%=      5-min Rain = 0
KTH1 121833Z 29005KT 30/12 A2995 RMK A01 T03020123  RH  033%=      5-min Rain = 0
KTH1 121834Z 30003KT 30/12 A2995 RMK A01 T03030123  RH  033%=      5-min Rain = 0
KTH1 121835Z 29003KT 30/12 A2995 RMK A01 T03030119  RH  032%=      5-min Rain = 0
KTH1 121836Z 31004KT 30/12 A2995 RMK A01 T03040124  RH  033%=      5-min Rain = 0
KTH1 121837Z 04006KT 31/12 A2995 RMK A01 T03050120  RH  032%=      5-min Rain = 0
KTH1 121838Z 06004KT 31/12 A2995 RMK A01 T03060115  RH  031%=      5-min Rain = 0
KTH1 121839Z 08005KT 31/12 A2995 RMK A01 T03060121  RH  032%=      5-min Rain = 0
KTH1 121840Z 07004KT 31/12 A2995 RMK A01 T03080116  RH  031%=      5-min Rain = 0
KTH1 121841Z 36004KT 31/12 A2995 RMK A01 T03080119  RH  031%=      5-min Rain = 0
KTH1 121842Z 02006KT 31/12 A2995 RMK A01 T03090118  RH  031%=      5-min Rain = 0
KTH1 121843Z 02007KT 31/11 A2995 RMK A01 T03110110  RH  029%=      5-min Rain = 0
KTH1 121844Z 00005KT 31/11 A2995 RMK A01 T03100111  RH  029%=      5-min Rain = 0
KTH1 121845Z 01005KT 31/11 A2995 RMK A01 T03100110  RH  029%=      5-min Rain = 0
KTH1 121846Z 01002KT 31/11 A2995 RMK A01 T03100112  RH  030%=      5-min Rain = 0
KTH1 121847Z 01006KT 31/11 A2995 RMK A01 T03100106  RH  028%=      5-min Rain = 0
KTH1 121848Z 35005KT 31/11 A2995 RMK A01 T03100109  RH  029%=      5-min Rain = 0
KTH1 121849Z 02006KT 31/11 A2995 RMK A01 T03090114  RH  030%=      5-min Rain = 0
KTH1 121850Z 03005KT 31/11 A2995 RMK A01 T03090114  RH  030%=      5-min Rain = 0
KTH1 121851Z 35005KT 31/11 A2995 RMK A01 T03100112  RH  029%=      5-min Rain = 0
KTH1 121852Z 03005KT 31/11 A2995 RMK A01 T03110110  RH  029%=      5-min Rain = 0
KTH1 121853Z 03005KT 31/11 A2995 RMK A01 T03110106  RH  028%=      5-min Rain = 0
KTH1 121854Z 07004KT 31/11 A2994 RMK A01 T03090106  RH  028%=      5-min Rain = 0
KTH1 121855Z 04005KT 31/11 A2994 RMK A01 T03090110  RH  029%=      5-min Rain = 0
KTH1 121856Z 01005KT 31/11 A2994 RMK A01 T03090110  RH  029%=      5-min Rain = 0
KTH1 121857Z 36005G10KT 31/11 A2994 RMK A01 T03090109  RH  029%=      5-min Rain = 0
KTH1 121858Z 36010KT 31/11 A2994 RMK A01 T03090110  RH  029%=      5-min Rain = 0
KTH1 121859Z 35008KT 31/11 A2994 RMK A01 T03080112  RH  030%=      5-min Rain = 0
KTH1 121900Z 35008KT 31/11 A2994 RMK A01 T03080113  RH  030%=      5-min Rain = 0
KTH1 121901Z 35009KT 31/11 A2994 RMK A01 T03080113  RH  030%=      5-min Rain = 0
KTH1 121902Z 36008KT 31/11 A2994 RMK A01 T03080108  RH  029%=      5-min Rain = 0
KTH1 121903Z 36008KT 31/11 A2994 RMK A01 T03080112  RH  030%=      5-min Rain = 0
KTH1 121904Z 36008KT 31/12 A2994 RMK A01 T03070115  RH  031%=      5-min Rain = 0
KTH1 121905Z 01005KT 31/11 A2994 RMK A01 T03060111  RH  030%=      5-min Rain = 0
KTH1 121906Z 32004KT 31/11 A2994 RMK A01 T03050110  RH  030%=      5-min Rain = 0
KTH1 121907Z 31005KT 31/11 A2994 RMK A01 T03050111  RH  030%=      5-min Rain = 0
KTH1 121908Z 31003KT 30/11 A2994 RMK A01 T03040109  RH  030%=      5-min Rain = 0
KTH1 121909Z 01003KT 30/11 A2994 RMK A01 T03040112  RH  031%=      5-min Rain = 0
KTH1 121910Z 01004KT 30/12 A2994 RMK A01 T03040116  RH  031%=      5-min Rain = 0
KTH1 121911Z 04003KT 31/12 A2994 RMK A01 T03070115  RH  031%=      5-min Rain = 0
KTH1 121912Z 07002KT 31/11 A2994 RMK A01 T03070110  RH  030%=      5-min Rain = 0
KTH1 121913Z 08001KT 31/11 A2993 RMK A01 T03070109  RH  029%=      5-min Rain = 0
KTH1 121914Z 04002KT 31/12 A2993 RMK A01 T03070116  RH  031%=      5-min Rain = 0
KTH1 121915Z 02007KT 31/12 A2993 RMK A01 T03080115  RH  030%=      5-min Rain = 0
KTH1 121916Z 04006KT 31/12 A2993 RMK A01 T03090115  RH  030%=      5-min Rain = 0
KTH1 121917Z 04005KT 31/12 A2993 RMK A01 T03100119  RH  031%=      5-min Rain = 0
KTH1 121918Z 05005KT 31/11 A2993 RMK A01 T03110112  RH  029%=      5-min Rain = 0
KTH1 121919Z 01003G8KT 31/12 A2993 RMK A01 T03110115  RH  030%=      5-min Rain = 0
KTH1 121920Z 02005KT 31/11 A2993 RMK A01 T03110114  RH  030%=      5-min Rain = 0
KTH1 121921Z 01004KT 31/11 A2993 RMK A01 T03110111  RH  029%=      5-min Rain = 0
KTH1 121922Z 01007KT 31/11 A2993 RMK A01 T03100112  RH  030%=      5-min Rain = 0
KTH1 121923Z 00004KT 31/11 A2993 RMK A01 T03080108  RH  029%=      5-min Rain = 0
KTH1 121924Z 34002KT 31/12 A2993 RMK A01 T03070116  RH  031%=      5-min Rain = 0
KTH1 121925Z 34003KT 31/11 A2993 RMK A01 T03070113  RH  030%=      5-min Rain = 0
KTH1 121926Z 33002KT 31/11 A2993 RMK A01 T03080109  RH  029%=      5-min Rain = 0
KTH1 121927Z 29003KT 31/11 A2992 RMK A01 T03090114  RH  030%=      5-min Rain = 0
KTH1 121928Z 33004G9KT 31/12 A2992 RMK A01 T03100116  RH  031%=      5-min Rain = 0
KTH1 121929Z 07005KT 31/12 A2992 RMK A01 T03120117  RH  030%=      5-min Rain = 0
KTH1 121930Z 05005KT 31/11 A2992 RMK A01 T03130114  RH  029%=      5-min Rain = 0
KTH1 121931Z 05009KT 32/11 A2992 RMK A01 T03150108  RH  028%=      5-min Rain = 0
KTH1 121932Z 04007KT 32/11 A2992 RMK A01 T03160105  RH  027%=      5-min Rain = 0
KTH1 121933Z 02008KT 32/11 A2992 RMK A01 T03170106  RH  027%=      5-min Rain = 0
KTH1 121934Z 02006KT 32/11 A2992 RMK A01 T03160108  RH  028%=      5-min Rain = 0
KTH1 121935Z 01007KT 31/11 A2992 RMK A01 T03140107  RH  028%=      5-min Rain = 0
KTH1 121936Z 35009KT 31/11 A2992 RMK A01 T03130105  RH  028%=      5-min Rain = 0
KTH1 121937Z 35006G11KT 31/10 A2992 RMK A01 T03120103  RH  028%=      5-min Rain = 0
KTH1 121938Z 35005KT 31/10 A2992 RMK A01 T03120101  RH  027%=      5-min Rain = 0
KTH1 121939Z 35003KT 31/11 A2992 RMK A01 T03120107  RH  028%=      5-min Rain = 0
KTH1 121940Z 02005KT 31/11 A2992 RMK A01 T03120108  RH  029%=      5-min Rain = 0
KTH1 121941Z 01005KT 31/11 A2992 RMK A01 T03130109  RH  028%=      5-min Rain = 0
KTH1 121942Z 00007KT 31/11 A2992 RMK A01 T03130106  RH  028%=      5-min Rain = 0
KTH1 121943Z 36009KT 31/11 A2992 RMK A01 T03140109  RH  028%=      5-min Rain = 0
KTH1 121944Z 34007KT 31/11 A2992 RMK A01 T03130106  RH  028%=      5-min Rain = 0
KTH1 121945Z 33004KT 31/11 A2992 RMK A01 T03110106  RH  028%=      5-min Rain = 0
KTH1 121946Z 36006KT 31/11 A2992 RMK A01 T03110106  RH  028%=      5-min Rain = 0
KTH1 121947Z 01006KT 31/11 A2992 RMK A01 T03100109  RH  029%=      5-min Rain = 0
KTH1 121948Z 01004KT 31/11 A2992 RMK A01 T03100106  RH  028%=      5-min Rain = 0
KTH1 121949Z 35004KT 31/11 A2992 RMK A01 T03110110  RH  029%=      5-min Rain = 0
KTH1 121950Z 33003KT 31/11 A2992 RMK A01 T03120109  RH  029%=      5-min Rain = 0
KTH1 121951Z 29001KT 31/11 A2991 RMK A01 T03120107  RH  028%=      5-min Rain = 0
KTH1 121952Z 07000KT 31/11 A2991 RMK A01 T03130108  RH  028%=      5-min Rain = 0
KTH1 121953Z 08002KT 31/11 A2991 RMK A01 T03140106  RH  028%=      5-min Rain = 0
KTH1 121954Z 35005KT 32/11 A2991 RMK A01 T03150110  RH  028%=      5-min Rain = 0
KTH1 121955Z 02005KT 32/11 A2991 RMK A01 T03160112  RH  029%=      5-min Rain = 0
KTH1 121956Z 04004KT 32/11 A2991 RMK A01 T03180109  RH  028%=      5-min Rain = 0
KTH1 121957Z 01004KT 32/11 A2991 RMK A01 T03180108  RH  028%=      5-min Rain = 0
KTH1 121958Z 33005KT 32/10 A2991 RMK A01 T03180102  RH  026%=      5-min Rain = 0
KTH1 121959Z 34002KT 32/11 A2991 RMK A01 T03170108  RH  028%=      5-min Rain = 0
KTH1 122000Z 36003KT 32/11 A2991 RMK A01 T03180109  RH  028%=      5-min Rain = 0
KTH1 122001Z 32004KT 32/10 A2991 RMK A01 T03180101  RH  026%=      5-min Rain = 0
KTH1 122002Z 35003KT 32/10 A2991 RMK A01 T03180103  RH  026%=      5-min Rain = 0
KTH1 122003Z 01005KT 32/11 A2991 RMK A01 T03180111  RH  028%=      5-min Rain = 0
KTH1 122004Z 01008KT 32/11 A2991 RMK A01 T03180107  RH  027%=      5-min Rain = 0
KTH1 122005Z 04006KT 32/10 A2991 RMK A01 T03170100  RH  026%=      5-min Rain = 0
KTH1 122006Z 02005KT 31/10 A2991 RMK A01 T03130101  RH  027%=      5-min Rain = 0
KTH1 122007Z 04005KT 31/10 A2991 RMK A01 T03110102  RH  027%=      5-min Rain = 0
KTH1 122008Z 05007KT 31/10 A2991 RMK A01 T03100102  RH  028%=      5-min Rain = 0
KTH1 122009Z 05005KT 31/10 A299 RMK A01 T03100104  RH  028%=      5-min Rain = 0
KTH1 122010Z 06002KT 31/10 A299 RMK A01 T03100101  RH  027%=      5-min Rain = 0
KTH1 122011Z 02003KT 31/10 A299 RMK A01 T03100104  RH  028%=      5-min Rain = 0
KTH1 122012Z 36005KT 31/10 A299 RMK A01 T03100102  RH  028%=      5-min Rain = 0
KTH1 122013Z 34008KT 31/11 A299 RMK A01 T03090105  RH  028%=      5-min Rain = 0
KTH1 122014Z 33010KT 31/11 A299 RMK A01 T03080105  RH  028%=      5-min Rain = 0
KTH1 122015Z 31007KT 31/10 A299 RMK A01 T03070103  RH  028%=      5-min Rain = 0
KTH1 122016Z 34005G10KT 31/11 A299 RMK A01 T03060110  RH  030%=      5-min Rain = 0
KTH1 122017Z 36005KT 31/11 A299 RMK A01 T03070109  RH  029%=      5-min Rain = 0
KTH1 122018Z 03002KT 31/11 A299 RMK A01 T03080109  RH  029%=      5-min Rain = 0
KTH1 122019Z 04002KT 31/11 A299 RMK A01 T03110110  RH  029%=      5-min Rain = 0
KTH1 122020Z 07002KT 31/11 A299 RMK A01 T03130108  RH  028%=      5-min Rain = 0
KTH1 122021Z 03003KT 32/11 A299 RMK A01 T03150109  RH  028%=      5-min Rain = 0
KTH1 122022Z 02003KT 32/11 A299 RMK A01 T03160109  RH  028%=      5-min Rain = 0
KTH1 122023Z 04005KT 32/11 A299 RMK A01 T03170107  RH  027%=      5-min Rain = 0
KTH1 122024Z 01005KT 32/11 A299 RMK A01 T03170111  RH  028%=      5-min Rain = 0
KTH1 122025Z 36007KT 32/10 A299 RMK A01 T03180104  RH  027%=      5-min Rain = 0
KTH1 122026Z 01008KT 32/10 A2989 RMK A01 T03170103  RH  027%=      5-min Rain = 0
KTH1 122027Z 02009KT 32/10 A2989 RMK A01 T03150100  RH  027%=      5-min Rain = 0
KTH1 122028Z 03006G11KT 31/10 A2989 RMK A01 T03140101  RH  027%=      5-min Rain = 0
KTH1 122029Z 01009KT 31/10 A2989 RMK A01 T03130103  RH  027%=      5-min Rain = 0
KTH1 122030Z 00009KT 31/11 A2989 RMK A01 T03130105  RH  028%=      5-min Rain = 0
KTH1 122031Z 01007KT 31/11 A2989 RMK A01 T03130106  RH  028%=      5-min Rain = 0
KTH1 122032Z 02008KT 31/11 A2989 RMK A01 T03130105  RH  028%=      5-min Rain = 0
KTH1 122033Z 03006KT 31/11 A2989 RMK A01 T03130107  RH  028%=      5-min Rain = 0
KTH1 122034Z 03008KT 31/11 A2989 RMK A01 T03140108  RH  028%=      5-min Rain = 0
KTH1 122035Z 03007KT 31/11 A2989 RMK A01 T03140106  RH  028%=      5-min Rain = 0
KTH1 122036Z 03007KT 31/11 A2989 RMK A01 T03140106  RH  028%=      5-min Rain = 0
KTH1 122037Z 02004KT 31/10 A2989 RMK A01 T03130104  RH  028%=      5-min Rain = 0
KTH1 122038Z 03004KT 31/11 A2989 RMK A01 T03120111  RH  029%=      5-min Rain = 0
KTH1 122039Z 33005KT 31/11 A2989 RMK A01 T03130111  RH  029%=      5-min Rain = 0
KTH1 122040Z 33004KT 31/11 A2989 RMK A01 T03130107  RH  028%=      5-min Rain = 0
KTH1 122041Z 34005KT 31/11 A2989 RMK A01 T03130110  RH  029%=      5-min Rain = 0
KTH1 122042Z 32004KT 31/10 A2989 RMK A01 T03140104  RH  027%=      5-min Rain = 0
KTH1 122043Z 31002KT 31/10 A2989 RMK A01 T03130102  RH  027%=      5-min Rain = 0
KTH1 122044Z 32002KT 31/11 A2989 RMK A01 T03140108  RH  028%=      5-min Rain = 0
KTH1 122045Z 32001KT 31/10 A2989 RMK A01 T03140100  RH  027%=      5-min Rain = 0
KTH1 122046Z 34003KT 31/11 A2989 RMK A01 T03140106  RH  028%=      5-min Rain = 0
KTH1 122047Z 34006KT 32/11 A2989 RMK A01 T03150106  RH  028%=      5-min Rain = 0
KTH1 122048Z 35007KT 32/11 A2989 RMK A01 T03160105  RH  027%=      5-min Rain = 0
KTH1 122049Z 36006KT 32/10 A2989 RMK A01 T03160100  RH  026%=      5-min Rain = 0
KTH1 122050Z 35002KT 32/10 A2989 RMK A01 T03160099  RH  026%=      5-min Rain = 0
KTH1 122051Z 35006KT 32/10 A2989 RMK A01 T03150101  RH  027%=      5-min Rain = 0
KTH1 122052Z 32004KT 32/11 A2989 RMK A01 T03150107  RH  028%=      5-min Rain = 0
KTH1 122053Z 32006KT 32/11 A2989 RMK A01 T03160107  RH  028%=      5-min Rain = 0
KTH1 122054Z 34004KT 32/11 A2989 RMK A01 T03170109  RH  028%=      5-min Rain = 0
KTH1 122055Z 31003KT 32/11 A2989 RMK A01 T03180112  RH  028%=      5-min Rain = 0
KTH1 122056Z 30005KT 32/11 A2988 RMK A01 T03200106  RH  027%=      5-min Rain = 0
KTH1 122057Z 29005KT 32/11 A2988 RMK A01 T03210109  RH  027%=      5-min Rain = 0
KTH1 122058Z 33002KT 32/11 A2988 RMK A01 T03220112  RH  028%=      5-min Rain = 0
KTH1 122059Z 05002KT 32/11 A2988 RMK A01 T03230109  RH  027%=      5-min Rain = 0
KTH1 122100Z 05002KT 32/11 A2988 RMK A01 T03230105  RH  026%=      5-min Rain = 0
KTH1 122101Z 02004G10KT 32/10 A2988 RMK A01 T03230104  RH  026%=      5-min Rain = 0
KTH1 122102Z 01007KT 32/10 A2988 RMK A01 T03230098  RH  025%=      5-min Rain = 0
KTH1 122103Z 01006KT 32/09 A2988 RMK A01 T03200094  RH  025%=      5-min Rain = 0
KTH1 122104Z 06006KT 32/10 A2988 RMK A01 T03170095  RH  025%=      5-min Rain = 0
KTH1 122105Z 05005KT 32/10 A2988 RMK A01 T03150101  RH  027%=      5-min Rain = 0
KTH1 122106Z 05005KT 31/10 A2988 RMK A01 T03140101  RH  027%=      5-min Rain = 0
KTH1 122107Z 06006KT 31/10 A2988 RMK A01 T03140103  RH  027%=      5-min Rain = 0
KTH1 122108Z 07006KT 31/11 A2988 RMK A01 T03140112  RH  029%=      5-min Rain = 0
KTH1 122109Z 08004KT 32/10 A2988 RMK A01 T03170104  RH  027%=      5-min Rain = 0
KTH1 122110Z 06003KT 32/11 A2988 RMK A01 T03180109  RH  028%=      5-min Rain = 0
KTH1 122111Z 06006KT 32/11 A2988 RMK A01 T03200106  RH  027%=      5-min Rain = 0
KTH1 122112Z 03008KT 32/10 A2988 RMK A01 T03200104  RH  026%=      5-min Rain = 0
KTH1 122113Z 04007KT 32/11 A2988 RMK A01 T03190106  RH  027%=      5-min Rain = 0
KTH1 122114Z 02005KT 32/10 A2988 RMK A01 T03180100  RH  026%=      5-min Rain = 0
KTH1 122115Z 02005KT 32/10 A2988 RMK A01 T03160100  RH  026%=      5-min Rain = 0
KTH1 122116Z 36007KT 31/10 A2988 RMK A01 T03140101  RH  027%=      5-min Rain = 0
KTH1 122117Z 35006KT 31/09 A2988 RMK A01 T03130090  RH  025%=      5-min Rain = 0
KTH1 122118Z 34004KT 31/09 A2988 RMK A01 T03130094  RH  026%=      5-min Rain = 0
KTH1 122119Z 35004KT 31/09 A2988 RMK A01 T03140094  RH  026%=      5-min Rain = 0
KTH1 122120Z 01003KT 32/10 A2988 RMK A01 T03160099  RH  026%=      5-min Rain = 0
KTH1 122121Z 33003KT 32/10 A2988 RMK A01 T03180103  RH  027%=      5-min Rain = 0
KTH1 122122Z 32005KT 32/10 A2987 RMK A01 T03200103  RH  026%=      5-min Rain = 0
KTH1 122123Z 32006KT 32/11 A2987 RMK A01 T03220109  RH  027%=      5-min Rain = 0
KTH1 122124Z 34004KT 32/11 A2987 RMK A01 T03230112  RH  028%=      5-min Rain = 0
KTH1 122125Z 32004KT 32/11 A2987 RMK A01 T03230110  RH  027%=      5-min Rain = 0
KTH1 122126Z 34003KT 32/10 A2987 RMK A01 T03240104  RH  026%=      5-min Rain = 0
KTH1 122127Z 33006KT 32/11 A2987 RMK A01 T03240106  RH  026%=      5-min Rain = 0
KTH1 122128Z 33007KT 32/10 A2987 RMK A01 T03230097  RH  025%=      5-min Rain = 0
KTH1 122129Z 34006KT 32/10 A2987 RMK A01 T03210098  RH  025%=      5-min Rain = 0
KTH1 122130Z 35006G11KT 32/10 A2987 RMK A01 T03200103  RH  026%=      5-min Rain = 0
KTH1 122131Z 35009KT 32/10 A2987 RMK A01 T03190101  RH  026%=      5-min Rain = 0
KTH1 122132Z 36005KT 32/10 A2987 RMK A01 T03180099  RH  026%=      5-min Rain = 0
KTH1 122133Z 02005KT 32/10 A2987 RMK A01 T03170101  RH  026%=      5-min Rain = 0
KTH1 122134Z 02006KT 32/10 A2987 RMK A01 T03170099  RH  026%=      5-min Rain = 0
KTH1 122135Z 01004KT 32/10 A2987 RMK A01 T03170097  RH  026%=      5-min Rain = 0
KTH1 122136Z 36006KT 32/10 A2987 RMK A01 T03170095  RH  025%=      5-min Rain = 0
KTH1 122137Z 36008KT 32/10 A2987 RMK A01 T03170100  RH  026%=      5-min Rain = 0
KTH1 122138Z 02007KT 32/10 A2987 RMK A01 T03160100  RH  026%=      5-min Rain = 0
KTH1 122139Z 02006KT 32/10 A2987 RMK A01 T03160098  RH  026%=      5-min Rain = 0
KTH1 122140Z 01005KT 32/10 A2987 RMK A01 T03170100  RH  026%=      5-min Rain = 0
KTH1 122141Z 01004KT 32/10 A2987 RMK A01 T03160097  RH  026%=      5-min Rain = 0
KTH1 122142Z 03003KT 32/09 A2987 RMK A01 T03160094  RH  025%=      5-min Rain = 0
KTH1 122143Z 01002KT 32/10 A2987 RMK A01 T03150095  RH  026%=      5-min Rain = 0
KTH1 122144Z 02003KT 32/10 A2987 RMK A01 T03150096  RH  026%=      5-min Rain = 0
KTH1 122145Z 01001KT 32/10 A2987 RMK A01 T03150096  RH  026%=      5-min Rain = 0
KTH1 122146Z 01003KT 32/10 A2987 RMK A01 T03150099  RH  026%=      5-min Rain = 0
KTH1 122147Z 35003KT 32/10 A2987 RMK A01 T03150096  RH  026%=      5-min Rain = 0
KTH1 122148Z 03003KT 32/11 A2987 RMK A01 T03150108  RH  028%=      5-min Rain = 0
KTH1 122149Z 36006KT 32/11 A2987 RMK A01 T03170107  RH  028%=      5-min Rain = 0
KTH1 122150Z 02004KT 32/11 A2987 RMK A01 T03180109  RH  028%=      5-min Rain = 0
KTH1 122151Z 01004KT 32/11 A2987 RMK A01 T03180106  RH  027%=      5-min Rain = 0
KTH1 122152Z 03005KT 32/11 A2987 RMK A01 T03180109  RH  028%=      5-min Rain = 0
KTH1 122153Z 04006KT 32/12 A2987 RMK A01 T03190115  RH  029%=      5-min Rain = 0
KTH1 122154Z 01005KT 32/12 A2987 RMK A01 T03200117  RH  029%=      5-min Rain = 0
KTH1 122155Z 05005KT 32/12 A2987 RMK A01 T03210115  RH  029%=      5-min Rain = 0
KTH1 122156Z 05006KT 32/12 A2986 RMK A01 T03210115  RH  028%=      5-min Rain = 0
KTH1 122157Z 07004KT 32/11 A2986 RMK A01 T03220113  RH  028%=      5-min Rain = 0
KTH1 122158Z 02002KT 32/12 A2986 RMK A01 T03220116  RH  028%=      5-min Rain = 0
KTH1 122159Z 00004KT 32/11 A2986 RMK A01 T03230114  RH  028%=      5-min Rain = 0
KTH1 122200Z 00003KT 32/11 A2986 RMK A01 T03220109  RH  027%=      5-min Rain = 0
KTH1 122201Z 35003KT 32/11 A2986 RMK A01 T03200110  RH  028%=      5-min Rain = 0
KTH1 122202Z 35003KT 32/11 A2986 RMK A01 T03180107  RH  027%=      5-min Rain = 0
KTH1 122203Z 33002KT 32/11 A2986 RMK A01 T03170113  RH  028%=      5-min Rain = 0
KTH1 122204Z 00003KT 32/12 A2986 RMK A01 T03170117  RH  029%=      5-min Rain = 0
KTH1 122205Z 36003KT 32/12 A2986 RMK A01 T03190116  RH  029%=      5-min Rain = 0
KTH1 122206Z 29003KT 32/11 A2986 RMK A01 T03200111  RH  028%=      5-min Rain = 0
KTH1 122207Z 35006KT 32/12 A2986 RMK A01 T03200115  RH  029%=      5-min Rain = 0
KTH1 122208Z 34004KT 32/12 A2986 RMK A01 T03200122  RH  030%=      5-min Rain = 0
KTH1 122209Z 36006KT 32/12 A2986 RMK A01 T03190116  RH  029%=      5-min Rain = 0
KTH1 122210Z 03005KT 32/12 A2986 RMK A01 T03190117  RH  029%=      5-min Rain = 0
KTH1 122211Z 05006KT 32/12 A2987 RMK A01 T03190117  RH  029%=      5-min Rain = 0
KTH1 122212Z 04005KT 32/12 A2986 RMK A01 T03180116  RH  029%=      5-min Rain = 0
KTH1 122213Z 05004KT 32/11 A2986 RMK A01 T03180112  RH  028%=      5-min Rain = 0
KTH1 122214Z 01006KT 32/11 A2986 RMK A01 T03180114  RH  029%=      5-min Rain = 0
KTH1 122215Z 00006KT 32/11 A2986 RMK A01 T03170111  RH  028%=      5-min Rain = 0
KTH1 122216Z 04005KT 32/12 A2986 RMK A01 T03160116  RH  029%=      5-min Rain = 0
KTH1 122217Z 05006KT 32/12 A2986 RMK A01 T03160118  RH  030%=      5-min Rain = 0
KTH1 122218Z 06004KT 32/11 A2986 RMK A01 T03170112  RH  028%=      5-min Rain = 0
KTH1 122219Z 03003KT 32/12 A2986 RMK A01 T03170116  RH  029%=      5-min Rain = 0
KTH1 122220Z 01003KT 32/11 A2986 RMK A01 T03170112  RH  029%=      5-min Rain = 0
KTH1 122221Z 01004KT 32/12 A2986 RMK A01 T03170116  RH  029%=      5-min Rain = 0
KTH1 122222Z 02006KT 32/12 A2986 RMK A01 T03160116  RH  029%=      5-min Rain = 0
KTH1 122223Z 04006KT 32/12 A2986 RMK A01 T03160115  RH  029%=      5-min Rain = 0
KTH1 122224Z 03006KT 32/11 A2986 RMK A01 T03150112  RH  029%=      5-min Rain = 0
KTH1 122225Z 03005KT 31/11 A2986 RMK A01 T03140110  RH  029%=      5-min Rain = 0
KTH1 122226Z 02004KT 31/11 A2986 RMK A01 T03130112  RH  029%=      5-min Rain = 0
KTH1 122227Z 01003KT 31/12 A2986 RMK A01 T03130116  RH  030%=      5-min Rain = 0
KTH1 122228Z 03005KT 31/12 A2986 RMK A01 T03120116  RH  030%=      5-min Rain = 0
KTH1 122229Z 04004KT 31/11 A2986 RMK A01 T03130113  RH  029%=      5-min Rain = 0
KTH1 122230Z 03004KT 31/12 A2986 RMK A01 T03130118  RH  030%=      5-min Rain = 0
KTH1 122231Z 04002KT 31/11 A2986 RMK A01 T03130111  RH  029%=      5-min Rain = 0
KTH1 122232Z 02004KT 31/11 A2986 RMK A01 T03130113  RH  029%=      5-min Rain = 0
KTH1 122233Z 03004KT 31/11 A2986 RMK A01 T03130113  RH  029%=      5-min Rain = 0
KTH1 122234Z 03005KT 31/11 A2986 RMK A01 T03140112  RH  029%=      5-min Rain = 0
KTH1 122235Z 04003KT 31/11 A2986 RMK A01 T03130113  RH  029%=      5-min Rain = 0
KTH1 122236Z 05005KT 31/11 A2986 RMK A01 T03130114  RH  029%=      5-min Rain = 0
KTH1 122237Z 09004KT 31/12 A2986 RMK A01 T03140116  RH  030%=      5-min Rain = 0
KTH1 122238Z 07003KT 31/11 A2986 RMK A01 T03140111  RH  029%=      5-min Rain = 0
KTH1 122239Z 07004KT 31/11 A2986 RMK A01 T03140110  RH  029%=      5-min Rain = 0
KTH1 122240Z 02001KT 31/11 A2986 RMK A01 T03140114  RH  029%=      5-min Rain = 0
KTH1 122241Z 06005KT 32/11 A2986 RMK A01 T03150113  RH  029%=      5-min Rain = 0
KTH1 122242Z 04004KT 32/12 A2986 RMK A01 T03150116  RH  029%=      5-min Rain = 0
KTH1 122243Z 01002KT 32/12 A2986 RMK A01 T03160116  RH  029%=      5-min Rain = 0
KTH1 122244Z 01003KT 32/12 A2986 RMK A01 T03160120  RH  030%=      5-min Rain = 0
KTH1 122245Z 01004KT 32/12 A2986 RMK A01 T03170123  RH  031%=      5-min Rain = 0
KTH1 122246Z 01004KT 32/12 A2986 RMK A01 T03170118  RH  030%=      5-min Rain = 0
KTH1 122247Z 35005KT 32/12 A2986 RMK A01 T03170120  RH  030%=      5-min Rain = 0
KTH1 122248Z 00005KT 32/12 A2986 RMK A01 T03170118  RH  030%=      5-min Rain = 0
KTH1 122249Z 00005KT 32/11 A2986 RMK A01 T03160113  RH  029%=      5-min Rain = 0
KTH1 122250Z 01004KT 32/11 A2986 RMK A01 T03150114  RH  029%=      5-min Rain = 0
KTH1 122251Z 01004KT 31/12 A2986 RMK A01 T03130116  RH  030%=      5-min Rain = 0
KTH1 122252Z 03003KT 31/11 A2986 RMK A01 T03120113  RH  029%=      5-min Rain = 0
KTH1 122253Z 01004KT 31/12 A2986 RMK A01 T03110115  RH  030%=      5-min Rain = 0
KTH1 122254Z 02004KT 31/11 A2986 RMK A01 T03110113  RH  030%=      5-min Rain = 0
KTH1 122255Z 02006KT 31/12 A2985 RMK A01 T03100116  RH  030%=      5-min Rain = 0
KTH1 122256Z 33008KT 31/12 A2985 RMK A01 T03100118  RH  031%=      5-min Rain = 0
KTH1 122257Z 00007KT 31/12 A2985 RMK A01 T03100117  RH  030%=      5-min Rain = 0
KTH1 122258Z 00005KT 31/11 A2985 RMK A01 T03100111  RH  029%=      5-min Rain = 0
KTH1 122259Z 01005KT 31/11 A2985 RMK A01 T03100112  RH  030%=      5-min Rain = 0
KTH1 122300Z 02004KT 31/11 A2985 RMK A01 T03100113  RH  030%=      5-min Rain = 0
KTH1 122301Z 01004KT 31/11 A2985 RMK A01 T03100113  RH  030%=      5-min Rain = 0
KTH1 122302Z 01005KT 31/11 A2985 RMK A01 T03100113  RH  030%=      5-min Rain = 0
KTH1 122303Z 33003KT 31/12 A2985 RMK A01 T03100115  RH  030%=      5-min Rain = 0
KTH1 122304Z 34003KT 31/12 A2985 RMK A01 T03100119  RH  031%=      5-min Rain = 0
KTH1 122305Z 35005KT 31/12 A2985 RMK A01 T03110118  RH  031%=      5-min Rain = 0
KTH1 122306Z 36003KT 31/12 A2985 RMK A01 T03110117  RH  030%=      5-min Rain = 0
KTH1 122307Z 00004KT 31/12 A2985 RMK A01 T03120117  RH  030%=      5-min Rain = 0
KTH1 122308Z 03004KT 31/11 A2985 RMK A01 T03110113  RH  029%=      5-min Rain = 0
KTH1 122309Z 02004KT 31/11 A2985 RMK A01 T03110113  RH  030%=      5-min Rain = 0
KTH1 122310Z 02003KT 31/11 A2985 RMK A01 T03120113  RH  030%=      5-min Rain = 0
KTH1 122311Z 02003KT 31/12 A2985 RMK A01 T03110115  RH  030%=      5-min Rain = 0
KTH1 122312Z 01004KT 31/11 A2985 RMK A01 T03110107  RH  028%=      5-min Rain = 0
KTH1 122313Z 03004KT 31/11 A2985 RMK A01 T03110112  RH  029%=      5-min Rain = 0
KTH1 122314Z 02005KT 31/11 A2985 RMK A01 T03110112  RH  029%=      5-min Rain = 0
KTH1 122315Z 02005KT 31/11 A2985 RMK A01 T03110111  RH  029%=      5-min Rain = 0
KTH1 122316Z 04004KT 31/11 A2985 RMK A01 T03100114  RH  030%=      5-min Rain = 0
KTH1 122317Z 04004KT 31/11 A2985 RMK A01 T03100112  RH  030%=      5-min Rain = 0
KTH1 122318Z 04004KT 31/11 A2985 RMK A01 T03100112  RH  030%=      5-min Rain = 0
KTH1 122319Z 04003KT 31/11 A2985 RMK A01 T03100114  RH  030%=      5-min Rain = 0
KTH1 122320Z 04004KT 31/12 A2985 RMK A01 T03100117  RH  031%=      5-min Rain = 0
KTH1 122321Z 04006KT 31/11 A2985 RMK A01 T03100113  RH  030%=      5-min Rain = 0
KTH1 122322Z 05005KT 31/11 A2985 RMK A01 T03100109  RH  029%=      5-min Rain = 0
KTH1 122323Z 05004KT 31/11 A2985 RMK A01 T03090109  RH  029%=      5-min Rain = 0
KTH1 122324Z 03004KT 31/11 A2985 RMK A01 T03090113  RH  030%=      5-min Rain = 0
KTH1 122325Z 04004KT 31/12 A2985 RMK A01 T03090115  RH  030%=      5-min Rain = 0
KTH1 122326Z 03003KT 31/11 A2985 RMK A01 T03090111  RH  030%=      5-min Rain = 0
KTH1 122327Z 06004KT 31/11 A2985 RMK A01 T03080113  RH  030%=      5-min Rain = 0
KTH1 122328Z 05005KT 31/11 A2985 RMK A01 T03080113  RH  030%=      5-min Rain = 0
KTH1 122329Z 05005KT 31/11 A2985 RMK A01 T03080112  RH  030%=      5-min Rain = 0
KTH1 122330Z 06005KT 31/11 A2985 RMK A01 T03080110  RH  030%=      5-min Rain = 0
KTH1 122331Z 07004KT 31/11 A2985 RMK A01 T03080113  RH  030%=      5-min Rain = 0
KTH1 122332Z 05003KT 31/12 A2985 RMK A01 T03080115  RH  031%=      5-min Rain = 0
KTH1 122333Z 03003KT 31/12 A2985 RMK A01 T03080116  RH  031%=      5-min Rain = 0
KTH1 122334Z 05003KT 31/12 A2985 RMK A01 T03080117  RH  031%=      5-min Rain = 0
KTH1 122335Z 05003KT 31/12 A2985 RMK A01 T03080116  RH  031%=      5-min Rain = 0
KTH1 122336Z 05004KT 31/12 A2985 RMK A01 T03080118  RH  031%=      5-min Rain = 0
KTH1 122337Z 04005KT 31/11 A2985 RMK A01 T03080112  RH  030%=      5-min Rain = 0
KTH1 122338Z 03005KT 31/11 A2985 RMK A01 T03080111  RH  030%=      5-min Rain = 0
KTH1 122339Z 03004KT 31/12 A2985 RMK A01 T03080115  RH  031%=      5-min Rain = 0
KTH1 122340Z 04004KT 31/12 A2985 RMK A01 T03070118  RH  031%=      5-min Rain = 0
KTH1 122341Z 03004KT 31/11 A2985 RMK A01 T03070114  RH  030%=      5-min Rain = 0
KTH1 122342Z 05003KT 31/12 A2985 RMK A01 T03070115  RH  031%=      5-min Rain = 0
KTH1 122343Z 05004KT 31/12 A2985 RMK A01 T03080117  RH  031%=      5-min Rain = 0
KTH1 122344Z 05004KT 31/12 A2985 RMK A01 T03070117  RH  031%=      5-min Rain = 0
KTH1 122345Z 04004KT 31/12 A2985 RMK A01 T03070116  RH  031%=      5-min Rain = 0
KTH1 122346Z 05003KT 31/12 A2985 RMK A01 T03070115  RH  031%=      5-min Rain = 0
KTH1 122347Z 05004KT 31/12 A2985 RMK A01 T03070116  RH  031%=      5-min Rain = 0
KTH1 122348Z 03003KT 31/12 A2985 RMK A01 T03070118  RH  031%=      5-min Rain = 0
KTH1 122349Z 02002KT 31/12 A2985 RMK A01 T03070118  RH  031%=      5-min Rain = 0
KTH1 122350Z 04003KT 31/12 A2985 RMK A01 T03070119  RH  031%=      5-min Rain = 0
KTH1 122351Z 04004KT 31/12 A2985 RMK A01 T03070118  RH  031%=      5-min Rain = 0
KTH1 122352Z 06003KT 31/12 A2985 RMK A01 T03070120  RH  032%=      5-min Rain = 0
KTH1 122353Z 06004KT 31/12 A2985 RMK A01 T03070119  RH  032%=      5-min Rain = 0
KTH1 122354Z 06004KT 31/12 A2985 RMK A01 T03070117  RH  031%=      5-min Rain = 0
KTH1 122355Z 05004KT 31/12 A2985 RMK A01 T03060117  RH  031%=      5-min Rain = 0
KTH1 122356Z 05004KT 31/12 A2985 RMK A01 T03060122  RH  032%=      5-min Rain = 0
KTH1 122357Z 04005KT 31/12 A2985 RMK A01 T03050119  RH  032%=      5-min Rain = 0
KTH1 122358Z 04004KT 31/11 A2985 RMK A01 T03050114  RH  031%=      5-min Rain = 0
KTH1 122359Z 04003KT 31/12 A2985 RMK A01 T03050117  RH  031%=      5-min Rain = 0
KTH1 130000Z 04003KT 31/12 A2985 RMK A01 T03050118  RH  032%=      5-min Rain = 0
KTH1 130001Z 04003KT 31/12 A2985 RMK A01 T03050120  RH  032%=      5-min Rain = 0
KTH1 130002Z 05003KT 30/12 A2985 RMK A01 T03040120  RH  032%=      5-min Rain = 0
KTH1 130003Z 04003KT 31/12 A2985 RMK A01 T03050119  RH  032%=      5-min Rain = 0
KTH1 130004Z 05003KT 30/12 A2985 RMK A01 T03040119  RH  032%=      5-min Rain = 0
KTH1 130005Z 04003KT 30/12 A2985 RMK A01 T03040116  RH  031%=      5-min Rain = 0
KTH1 130006Z 04003KT 30/12 A2985 RMK A01 T03040119  RH  032%=      5-min Rain = 0
KTH1 130007Z 02003KT 30/12 A2985 RMK A01 T03030116  RH  032%=      5-min Rain = 0
KTH1 130008Z 02003KT 30/12 A2985 RMK A01 T03030115  RH  032%=      5-min Rain = 0
KTH1 130009Z 02003KT 30/12 A2985 RMK A01 T03020117  RH  032%=      5-min Rain = 0
KTH1 130010Z 03003KT 30/12 A2985 RMK A01 T03020116  RH  032%=      5-min Rain = 0
KTH1 130011Z 03004KT 30/12 A2985 RMK A01 T03010116  RH  032%=      5-min Rain = 0
KTH1 130012Z 04003KT 30/12 A2985 RMK A01 T03010118  RH  032%=      5-min Rain = 0
KTH1 130013Z 05003KT 30/12 A2985 RMK A01 T03010116  RH  032%=      5-min Rain = 0
KTH1 130014Z 04003KT 30/12 A2985 RMK A01 T03000115  RH  032%=      5-min Rain = 0
KTH1 130015Z 04003KT 30/11 A2985 RMK A01 T03000112  RH  031%=      5-min Rain = 0
KTH1 130016Z 04002KT 30/11 A2984 RMK A01 T03000112  RH  031%=      5-min Rain = 0
KTH1 130017Z 03002KT 30/11 A2984 RMK A01 T03000113  RH  032%=      5-min Rain = 0
KTH1 130018Z 03002KT 30/12 A2984 RMK A01 T03000115  RH  032%=      5-min Rain = 0
KTH1 130019Z 02003KT 30/11 A2984 RMK A01 T03000112  RH  031%=      5-min Rain = 0
KTH1 130020Z 04002KT 30/12 A2984 RMK A01 T02990115  RH  032%=      5-min Rain = 0
KTH1 130021Z 03002KT 30/12 A2984 RMK A01 T02990116  RH  032%=      5-min Rain = 0
KTH1 130022Z 03002KT 30/12 A2984 RMK A01 T02980115  RH  032%=      5-min Rain = 0
KTH1 130023Z 00001KT 30/12 A2984 RMK A01 T02980118  RH  033%=      5-min Rain = 0
KTH1 130024Z 02001KT 30/12 A2984 RMK A01 T02970117  RH  033%=      5-min Rain = 0
KTH1 130025Z 02002KT 30/12 A2984 RMK A01 T02970117  RH  033%=      5-min Rain = 0
KTH1 130026Z 02002KT 30/12 A2984 RMK A01 T02970118  RH  033%=      5-min Rain = 0
KTH1 130027Z 01002KT 30/12 A2984 RMK A01 T02970119  RH  033%=      5-min Rain = 0
KTH1 130028Z 36001KT 30/12 A2984 RMK A01 T02960120  RH  034%=      5-min Rain = 0
KTH1 130029Z 35001KT 30/12 A2984 RMK A01 T02970120  RH  034%=      5-min Rain = 0
KTH1 130030Z 00001KT 30/12 A2984 RMK A01 T02960118  RH  033%=      5-min Rain = 0
KTH1 130031Z 00002KT 30/12 A2984 RMK A01 T02960117  RH  033%=      5-min Rain = 0
KTH1 130032Z 35001KT 30/12 A2984 RMK A01 T02960117  RH  033%=      5-min Rain = 0
KTH1 130033Z 35002KT 30/12 A2984 RMK A01 T02960117  RH  033%=      5-min Rain = 0
KTH1 130034Z 35002KT 30/12 A2984 RMK A01 T02960119  RH  034%=      5-min Rain = 0
KTH1 130035Z 35001KT 30/12 A2984 RMK A01 T02960120  RH  034%=      5-min Rain = 0
KTH1 130036Z 34001KT 30/12 A2984 RMK A01 T02960120  RH  034%=      5-min Rain = 0
KTH1 130037Z 33001KT 30/12 A2984 RMK A01 T02950121  RH  034%=      5-min Rain = 0
KTH1 130038Z 32001KT 30/12 A2984 RMK A01 T02950124  RH  035%=      5-min Rain = 0
KTH1 130039Z 32001KT 29/13 A2984 RMK A01 T02940128  RH  036%=      5-min Rain = 0
KTH1 130040Z 33001KT 29/14 A2984 RMK A01 T02930139  RH  039%=      5-min Rain = 0
KTH1 130041Z 34001KT 29/14 A2984 RMK A01 T02910138  RH  039%=      5-min Rain = 0
KTH1 130042Z 34001KT 29/14 A2984 RMK A01 T02890140  RH  040%=      5-min Rain = 0
KTH1 130043Z 35001KT 29/14 A2984 RMK A01 T02870142  RH  041%=      5-min Rain = 0
KTH1 130044Z 35001KT 29/14 A2984 RMK A01 T02860139  RH  040%=      5-min Rain = 0
KTH1 130045Z 00001KT 29/14 A2984 RMK A01 T02850135  RH  040%=      5-min Rain = 0
KTH1 130046Z 01001KT 28/13 A2984 RMK A01 T02840132  RH  039%=      5-min Rain = 0
KTH1 130047Z 01002KT 28/13 A2984 RMK A01 T02830131  RH  039%=      5-min Rain = 0
KTH1 130048Z 01002KT 28/13 A2984 RMK A01 T02820129  RH  039%=      5-min Rain = 0
KTH1 130049Z 00001KT 28/13 A2984 RMK A01 T02810129  RH  039%=      5-min Rain = 0
KTH1 130050Z 01001KT 28/13 A2984 RMK A01 T02800126  RH  039%=      5-min Rain = 0
KTH1 130051Z 35001KT 28/12 A2984 RMK A01 T02790124  RH  038%=      5-min Rain = 0
KTH1 130052Z 35001KT 28/12 A2984 RMK A01 T02790123  RH  038%=      5-min Rain = 0
KTH1 130053Z 00001KT 28/12 A2984 RMK A01 T02780123  RH  038%=      5-min Rain = 0
KTH1 130054Z 00001KT 28/12 A2984 RMK A01 T02770123  RH  038%=      5-min Rain = 0
KTH1 130055Z 00001KT 28/12 A2984 RMK A01 T02770120  RH  038%=      5-min Rain = 0
KTH1 130056Z 00002KT 28/12 A2984 RMK A01 T02760117  RH  037%=      5-min Rain = 0
KTH1 130057Z 01002KT 28/12 A2984 RMK A01 T02750116  RH  037%=      5-min Rain = 0
KTH1 130058Z 01002KT 28/12 A2984 RMK A01 T02750115  RH  037%=      5-min Rain = 0
KTH1 130059Z 01002KT 28/11 A2984 RMK A01 T02750114  RH  037%=      5-min Rain = 0
KTH1 130100Z 01002KT 28/12 A2984 RMK A01 T02750115  RH  037%=      5-min Rain = 0
KTH1 130101Z 00002KT 27/12 A2984 RMK A01 T02740115  RH  037%=      5-min Rain = 0
KTH1 130102Z 35002KT 27/12 A2984 RMK A01 T02740117  RH  037%=      5-min Rain = 0
KTH1 130103Z 00001KT 27/12 A2984 RMK A01 T02740122  RH  039%=      5-min Rain = 0
KTH1 130104Z 00002KT 27/13 A2984 RMK A01 T02740125  RH  040%=      5-min Rain = 0
KTH1 130105Z 01002KT 27/13 A2984 RMK A01 T02730126  RH  040%=      5-min Rain = 0
KTH1 130106Z 01002KT 27/12 A2984 RMK A01 T02730124  RH  040%=      5-min Rain = 0
KTH1 130107Z 02002KT 27/12 A2984 RMK A01 T02720122  RH  039%=      5-min Rain = 0
KTH1 130108Z 02003KT 27/12 A2984 RMK A01 T02720121  RH  039%=      5-min Rain = 0
KTH1 130109Z 02003KT 27/12 A2984 RMK A01 T02710121  RH  039%=      5-min Rain = 0
KTH1 130110Z 03003KT 27/12 A2984 RMK A01 T02700120  RH  039%=      5-min Rain = 0
KTH1 130111Z 03003KT 27/12 A2984 RMK A01 T02700119  RH  039%=      5-min Rain = 0
KTH1 130112Z 05003KT 27/12 A2984 RMK A01 T02710123  RH  040%=      5-min Rain = 0
KTH1 130113Z 08003KT 27/13 A2984 RMK A01 T02700128  RH  041%=      5-min Rain = 0
KTH1 130114Z 09006KT 27/13 A2984 RMK A01 T02680132  RH  043%=      5-min Rain = 0
KTH1 130115Z 08006KT 27/14 A2984 RMK A01 T02660141  RH  046%=      5-min Rain = 0
KTH1 130116Z 08005KT 26/14 A2984 RMK A01 T02630141  RH  047%=      5-min Rain = 0
KTH1 130117Z 08006KT 26/14 A2984 RMK A01 T02600139  RH  047%=      5-min Rain = 0
KTH1 130118Z 09005KT 26/14 A2984 RMK A01 T02590136  RH  047%=      5-min Rain = 0
KTH1 130119Z 09005KT 26/13 A2984 RMK A01 T02580133  RH  046%=      5-min Rain = 0
KTH1 130120Z 09005KT 26/13 A2984 RMK A01 T02570129  RH  045%=      5-min Rain = 0
KTH1 130121Z 09005KT 26/13 A2984 RMK A01 T02570125  RH  044%=      5-min Rain = 0
KTH1 130122Z 09005KT 26/12 A2984 RMK A01 T02580121  RH  043%=      5-min Rain = 0
KTH1 130123Z 09006KT 26/12 A2984 RMK A01 T02580119  RH  042%=      5-min Rain = 0
KTH1 130124Z 09005KT 26/12 A2985 RMK A01 T02600117  RH  041%=      5-min Rain = 0
KTH1 130125Z 10005KT 26/12 A2985 RMK A01 T02610117  RH  040%=      5-min Rain = 0
KTH1 130126Z 09005KT 26/12 A2985 RMK A01 T02620117  RH  040%=      5-min Rain = 0
KTH1 130127Z 09004KT 26/12 A2985 RMK A01 T02630118  RH  040%=      5-min Rain = 0
KTH1 130128Z 10004KT 26/12 A2985 RMK A01 T02630118  RH  040%=      5-min Rain = 0
KTH1 130129Z 10004KT 26/12 A2985 RMK A01 T02630117  RH  040%=      5-min Rain = 0
KTH1 130130Z 10004KT 26/12 A2985 RMK A01 T02630118  RH  040%=      5-min Rain = 0
KTH1 130131Z 10004KT 26/12 A2985 RMK A01 T02630118  RH  040%=      5-min Rain = 0
KTH1 130132Z 10004KT 26/12 A2985 RMK A01 T02630119  RH  041%=      5-min Rain = 0
KTH1 130133Z 09004KT 26/12 A2985 RMK A01 T02620118  RH  041%=      5-min Rain = 0
KTH1 130134Z 09005KT 26/12 A2985 RMK A01 T02610118  RH  041%=      5-min Rain = 0
KTH1 130135Z 09005KT 26/12 A2985 RMK A01 T02610118  RH  041%=      5-min Rain = 0
KTH1 130136Z 10005KT 26/12 A2985 RMK A01 T02600117  RH  041%=      5-min Rain = 0
KTH1 130137Z 10005KT 26/12 A2985 RMK A01 T02600117  RH  041%=      5-min Rain = 0
KTH1 130138Z 10004KT 26/12 A2985 RMK A01 T02590117  RH  041%=      5-min Rain = 0
KTH1 130139Z 10004KT 26/12 A2985 RMK A01 T02590116  RH  041%=      5-min Rain = 0
KTH1 130140Z 10005KT 26/12 A2985 RMK A01 T02590116  RH  041%=      5-min Rain = 0
KTH1 130141Z 10004KT 26/12 A2985 RMK A01 T02580116  RH  041%=      5-min Rain = 0
KTH1 130142Z 10005KT 26/12 A2985 RMK A01 T02580116  RH  041%=      5-min Rain = 0
KTH1 130143Z 09004KT 26/12 A2985 RMK A01 T02570116  RH  041%=      5-min Rain = 0
KTH1 130144Z 10005KT 26/12 A2985 RMK A01 T02570116  RH  041%=      5-min Rain = 0
KTH1 130145Z 09005KT 26/12 A2985 RMK A01 T02560116  RH  042%=      5-min Rain = 0
KTH1 130146Z 10005KT 26/12 A2985 RMK A01 T02560116  RH  042%=      5-min Rain = 0
KTH1 130147Z 10005KT 26/12 A2985 RMK A01 T02550116  RH  042%=      5-min Rain = 0
KTH1 130148Z 09006KT 26/12 A2985 RMK A01 T02550116  RH  042%=      5-min Rain = 0
KTH1 130149Z 09006KT 26/12 A2985 RMK A01 T02550116  RH  042%=      5-min Rain = 0
KTH1 130150Z 10006KT 26/12 A2985 RMK A01 T02550115  RH  042%=      5-min Rain = 0
KTH1 130151Z 09007KT 26/12 A2985 RMK A01 T02550116  RH  042%=      5-min Rain = 0
KTH1 130152Z 09008KT 25/11 A2985 RMK A01 T02540114  RH  041%=      5-min Rain = 0
KTH1 130153Z 09006KT 26/11 A2985 RMK A01 T02550113  RH  041%=      5-min Rain = 0
KTH1 130154Z 09006KT 26/11 A2985 RMK A01 T02550114  RH  041%=      5-min Rain = 0
KTH1 130155Z 09006KT 26/12 A2985 RMK A01 T02550115  RH  041%=      5-min Rain = 0
KTH1 130156Z 09006KT 26/11 A2985 RMK A01 T02550114  RH  041%=      5-min Rain = 0
KTH1 130157Z 09006KT 26/11 A2985 RMK A01 T02550114  RH  041%=      5-min Rain = 0
KTH1 130158Z 09005KT 26/11 A2985 RMK A01 T02550114  RH  041%=      5-min Rain = 0
KTH1 130159Z 09005KT 25/11 A2986 RMK A01 T02540114  RH  042%=      5-min Rain = 0
KTH1 130200Z 09006KT 25/12 A2986 RMK A01 T02540115  RH  042%=      5-min Rain = 0
KTH1 130201Z 09005KT 25/12 A2986 RMK A01 T02530115  RH  042%=      5-min Rain = 0
KTH1 130202Z 09005KT 25/12 A2986 RMK A01 T02530115  RH  042%=      5-min Rain = 0
KTH1 130203Z 09006KT 25/12 A2986 RMK A01 T02520115  RH  042%=      5-min Rain = 0
KTH1 130204Z 09006KT 25/11 A2986 RMK A01 T02510114  RH  042%=      5-min Rain = 0
KTH1 130205Z 09004KT 25/11 A2986 RMK A01 T02510114  RH  042%=      5-min Rain = 0
KTH1 130206Z 09003KT 25/12 A2986 RMK A01 T02500115  RH  043%=      5-min Rain = 0
KTH1 130207Z 09004KT 25/12 A2986 RMK A01 T02500115  RH  043%=      5-min Rain = 0
KTH1 130208Z 09005KT 25/11 A2986 RMK A01 T02490114  RH  043%=      5-min Rain = 0
KTH1 130209Z 09005KT 25/11 A2986 RMK A01 T02490113  RH  042%=      5-min Rain = 0
KTH1 130210Z 09005KT 25/11 A2986 RMK A01 T02490113  RH  042%=      5-min Rain = 0
KTH1 130211Z 08006KT 25/11 A2986 RMK A01 T02490113  RH  042%=      5-min Rain = 0
KTH1 130212Z 09005KT 25/11 A2986 RMK A01 T02490113  RH  042%=      5-min Rain = 0
KTH1 130213Z 09005KT 25/11 A2986 RMK A01 T02490113  RH  043%=      5-min Rain = 0
KTH1 130214Z 09004KT 25/11 A2986 RMK A01 T02490114  RH  043%=      5-min Rain = 0
KTH1 130215Z 09005KT 25/11 A2986 RMK A01 T02480113  RH  043%=      5-min Rain = 0
KTH1 130216Z 09004KT 25/11 A2986 RMK A01 T02480113  RH  043%=      5-min Rain = 0
KTH1 130217Z 10004KT 25/11 A2986 RMK A01 T02470113  RH  043%=      5-min Rain = 0
KTH1 130218Z 09004KT 25/11 A2986 RMK A01 T02460112  RH  043%=      5-min Rain = 0
KTH1 130219Z 09005KT 25/11 A2986 RMK A01 T02460113  RH  043%=      5-min Rain = 0
KTH1 130220Z 09004KT 25/11 A2986 RMK A01 T02470113  RH  043%=      5-min Rain = 0
KTH1 130221Z 10003KT 25/11 A2986 RMK A01 T02460113  RH  043%=      5-min Rain = 0
KTH1 130222Z 09005KT 25/11 A2986 RMK A01 T02460111  RH  043%=      5-min Rain = 0
KTH1 130223Z 09003KT 25/11 A2986 RMK A01 T02460111  RH  043%=      5-min Rain = 0
KTH1 130224Z 10004KT 25/11 A2986 RMK A01 T02460112  RH  043%=      5-min Rain = 0
KTH1 130225Z 10003KT 25/11 A2986 RMK A01 T02460113  RH  043%=      5-min Rain = 0
KTH1 130226Z 10003KT 25/11 A2986 RMK A01 T02450114  RH  044%=      5-min Rain = 0
KTH1 130227Z 10003KT 24/11 A2986 RMK A01 T02440113  RH  044%=      5-min Rain = 0
KTH1 130228Z 09002KT 24/11 A2986 RMK A01 T02430113  RH  044%=      5-min Rain = 0
KTH1 130229Z 10003KT 24/11 A2986 RMK A01 T02420113  RH  044%=      5-min Rain = 0
KTH1 130230Z 10003KT 24/11 A2986 RMK A01 T02410113  RH  045%=      5-min Rain = 0
KTH1 130231Z 10002KT 24/11 A2986 RMK A01 T02400114  RH  045%=      5-min Rain = 0
KTH1 130232Z 09002KT 24/11 A2986 RMK A01 T02400114  RH  045%=      5-min Rain = 0
KTH1 130233Z 10002KT 24/11 A2986 RMK A01 T02390114  RH  046%=      5-min Rain = 0
KTH1 130234Z 11002KT 24/11 A2986 RMK A01 T02380114  RH  046%=      5-min Rain = 0
KTH1 130235Z 10002KT 24/11 A2986 RMK A01 T02370113  RH  046%=      5-min Rain = 0
KTH1 130236Z 10002KT 24/11 A2986 RMK A01 T02370113  RH  046%=      5-min Rain = 0
KTH1 130237Z 10002KT 24/11 A2986 RMK A01 T02360113  RH  046%=      5-min Rain = 0
KTH1 130238Z 10002KT 24/11 A2986 RMK A01 T02360113  RH  046%=      5-min Rain = 0
KTH1 130239Z 11001KT 24/11 A2986 RMK A01 T02350113  RH  046%=      5-min Rain = 0
KTH1 130240Z 10002KT 24/11 A2986 RMK A01 T02350113  RH  046%=      5-min Rain = 0
KTH1 130241Z 10002KT 23/11 A2986 RMK A01 T02340112  RH  046%=      5-min Rain = 0
KTH1 130242Z 11002KT 23/11 A2986 RMK A01 T02340112  RH  046%=      5-min Rain = 0
KTH1 130243Z 10002KT 23/11 A2986 RMK A01 T02330112  RH  046%=      5-min Rain = 0
KTH1 130244Z 11002KT 23/11 A2986 RMK A01 T02320112  RH  047%=      5-min Rain = 0
KTH1 130245Z 11002KT 23/11 A2986 RMK A01 T02320112  RH  047%=      5-min Rain = 0
KTH1 130246Z 11002KT 23/11 A2986 RMK A01 T02310112  RH  047%=      5-min Rain = 0
KTH1 130247Z 11002KT 23/11 A2986 RMK A01 T02310111  RH  047%=      5-min Rain = 0
KTH1 130248Z 11003KT 23/11 A2986 RMK A01 T02300111  RH  047%=      5-min Rain = 0
KTH1 130249Z 11003KT 23/11 A2986 RMK A01 T02290111  RH  047%=      5-min Rain = 0
KTH1 130250Z 10003KT 23/11 A2987 RMK A01 T02290111  RH  047%=      5-min Rain = 0
KTH1 130251Z 11003KT 23/11 A2987 RMK A01 T02290112  RH  048%=      5-min Rain = 0
KTH1 130252Z 11003KT 23/11 A2987 RMK A01 T02280112  RH  048%=      5-min Rain = 0
KTH1 130253Z 11003KT 23/11 A2987 RMK A01 T02280112  RH  048%=      5-min Rain = 0
KTH1 130254Z 11003KT 23/11 A2987 RMK A01 T02270111  RH  048%=      5-min Rain = 0
KTH1 130255Z 11003KT 23/11 A2987 RMK A01 T02270112  RH  048%=      5-min Rain = 0
KTH1 130256Z 11003KT 23/11 A2987 RMK A01 T02270112  RH  048%=      5-min Rain = 0
KTH1 130257Z 11003KT 23/11 A2987 RMK A01 T02270111  RH  048%=      5-min Rain = 0
KTH1 130258Z 11003KT 23/11 A2987 RMK A01 T02260111  RH  048%=      5-min Rain = 0
KTH1 130259Z 11003KT 23/11 A2987 RMK A01 T02270111  RH  048%=      5-min Rain = 0
KTH1 130300Z 11003KT 23/11 A2987 RMK A01 T02260111  RH  048%=      5-min Rain = 0
KTH1 130301Z 11002KT 23/11 A2987 RMK A01 T02260112  RH  048%=      5-min Rain = 0
KTH1 130302Z 11002KT 23/11 A2987 RMK A01 T02260111  RH  048%=      5-min Rain = 0
KTH1 130303Z 11002KT 23/11 A2987 RMK A01 T02260111  RH  048%=      5-min Rain = 0
KTH1 130304Z 11002KT 23/11 A2987 RMK A01 T02260110  RH  048%=      5-min Rain = 0
KTH1 130305Z 12002KT 23/11 A2987 RMK A01 T02260110  RH  048%=      5-min Rain = 0
KTH1 130306Z 12002KT 23/11 A2987 RMK A01 T02260110  RH  048%=      5-min Rain = 0
KTH1 130307Z 11002KT 23/11 A2987 RMK A01 T02260109  RH  048%=      5-min Rain = 0
KTH1 130308Z 11002KT 23/11 A2987 RMK A01 T02260109  RH  048%=      5-min Rain = 0
KTH1 130309Z 11002KT 23/11 A2987 RMK A01 T02260109  RH  048%=      5-min Rain = 0
KTH1 130310Z 10002KT 23/11 A2987 RMK A01 T02260109  RH  047%=      5-min Rain = 0
KTH1 130311Z 10002KT 23/11 A2987 RMK A01 T02260109  RH  048%=      5-min Rain = 0
KTH1 130312Z 10002KT 23/11 A2987 RMK A01 T02260110  RH  048%=      5-min Rain = 0
KTH1 130313Z 10002KT 23/11 A2987 RMK A01 T02260110  RH  048%=      5-min Rain = 0
KTH1 130314Z 10002KT 23/11 A2987 RMK A01 T02250110  RH  048%=      5-min Rain = 0
KTH1 130315Z 10002KT 23/11 A2987 RMK A01 T02250110  RH  048%=      5-min Rain = 0
KTH1 130316Z 10002KT 22/11 A2987 RMK A01 T02240111  RH  049%=      5-min Rain = 0
KTH1 130317Z 10003KT 22/11 A2987 RMK A01 T02230111  RH  049%=      5-min Rain = 0
KTH1 130318Z 10002KT 22/11 A2987 RMK A01 T02230111  RH  049%=      5-min Rain = 0
KTH1 130319Z 10002KT 22/11 A2987 RMK A01 T02220113  RH  050%=      5-min Rain = 0
KTH1 130320Z 10003KT 22/11 A2987 RMK A01 T02220113  RH  050%=      5-min Rain = 0
KTH1 130321Z 10003KT 22/11 A2987 RMK A01 T02210114  RH  051%=      5-min Rain = 0
KTH1 130322Z 10003KT 22/11 A2986 RMK A01 T02200113  RH  050%=      5-min Rain = 0
KTH1 130323Z 10003KT 22/11 A2986 RMK A01 T02200113  RH  051%=      5-min Rain = 0
KTH1 130324Z 10003KT 22/11 A2986 RMK A01 T02190113  RH  051%=      5-min Rain = 0
KTH1 130325Z 10003KT 22/12 A2986 RMK A01 T02190115  RH  052%=      5-min Rain = 0
KTH1 130326Z 11002KT 22/12 A2986 RMK A01 T02180116  RH  052%=      5-min Rain = 0
KTH1 130327Z 10003KT 22/12 A2986 RMK A01 T02180115  RH  052%=      5-min Rain = 0
KTH1 130328Z 10003KT 22/12 A2986 RMK A01 T02170115  RH  052%=      5-min Rain = 0
KTH1 130329Z 10002KT 22/11 A2986 RMK A01 T02170114  RH  052%=      5-min Rain = 0
KTH1 130330Z 10002KT 22/11 A2986 RMK A01 T02160114  RH  052%=      5-min Rain = 0
KTH1 130331Z 10002KT 22/11 A2987 RMK A01 T02160113  RH  052%=      5-min Rain = 0
KTH1 130332Z 10002KT 22/11 A2987 RMK A01 T02150113  RH  052%=      5-min Rain = 0
KTH1 130333Z 10002KT 22/11 A2987 RMK A01 T02150113  RH  052%=      5-min Rain = 0
KTH1 130334Z 10002KT 22/11 A2987 RMK A01 T02150113  RH  052%=      5-min Rain = 0
KTH1 130335Z 09002KT 22/11 A2987 RMK A01 T02150114  RH  053%=      5-min Rain = 0
KTH1 130336Z 09003KT 21/11 A2987 RMK A01 T02140114  RH  053%=      5-min Rain = 0
KTH1 130337Z 09003KT 21/12 A2987 RMK A01 T02140115  RH  053%=      5-min Rain = 0
KTH1 130338Z 09003KT 21/12 A2987 RMK A01 T02140115  RH  053%=      5-min Rain = 0
KTH1 130339Z 09004KT 21/12 A2987 RMK A01 T02130115  RH  054%=      5-min Rain = 0
KTH1 130340Z 09003KT 21/12 A2987 RMK A01 T02130116  RH  054%=      5-min Rain = 0
KTH1 130341Z 10004KT 21/12 A2987 RMK A01 T02130116  RH  054%=      5-min Rain = 0
KTH1 130342Z 10003KT 21/12 A2987 RMK A01 T02130118  RH  054%=      5-min Rain = 0
KTH1 130343Z 10003KT 21/12 A2987 RMK A01 T02120117  RH  055%=      5-min Rain = 0
KTH1 130344Z 10003KT 21/12 A2987 RMK A01 T02130117  RH  054%=      5-min Rain = 0
KTH1 130345Z 10004KT 21/12 A2987 RMK A01 T02130115  RH  054%=      5-min Rain = 0
KTH1 130346Z 10004KT 21/11 A2987 RMK A01 T02130114  RH  053%=      5-min Rain = 0
KTH1 130347Z 09004KT 21/11 A2987 RMK A01 T02140113  RH  052%=      5-min Rain = 0
KTH1 130348Z 09004KT 22/12 A2987 RMK A01 T02150115  RH  053%=      5-min Rain = 0
KTH1 130349Z 09004KT 22/12 A2987 RMK A01 T02160116  RH  053%=      5-min Rain = 0
KTH1 130350Z 10003KT 22/12 A2987 RMK A01 T02160115  RH  053%=      5-min Rain = 0
KTH1 130351Z 10003KT 22/12 A2987 RMK A01 T02160115  RH  053%=      5-min Rain = 0
KTH1 130352Z 10004KT 22/12 A2987 RMK A01 T02160115  RH  053%=      5-min Rain = 0
KTH1 130353Z 09004KT 22/12 A2987 RMK A01 T02160115  RH  052%=      5-min Rain = 0
KTH1 130354Z 10003KT 22/11 A2987 RMK A01 T02160114  RH  052%=      5-min Rain = 0
KTH1 130355Z 10004KT 22/11 A2987 RMK A01 T02160114  RH  052%=      5-min Rain = 0
KTH1 130356Z 09004KT 22/11 A2987 RMK A01 T02170114  RH  052%=      5-min Rain = 0
KTH1 130357Z 09004KT 22/12 A2987 RMK A01 T02170115  RH  052%=      5-min Rain = 0
KTH1 130358Z 10003KT 22/11 A2987 RMK A01 T02170114  RH  052%=      5-min Rain = 0
KTH1 130359Z 09003KT 22/11 A2987 RMK A01 T02170114  RH  052%=      5-min Rain = 0
KTH1 130400Z 09003KT 22/11 A2987 RMK A01 T02160112  RH  052%=      5-min Rain = 0
KTH1 130401Z 09003KT 22/11 A2987 RMK A01 T02160111  RH  051%=      5-min Rain = 0
KTH1 130402Z 10004KT 22/11 A2987 RMK A01 T02160112  RH  051%=      5-min Rain = 0
KTH1 130403Z 11003KT 22/11 A2987 RMK A01 T02160111  RH  051%=      5-min Rain = 0
KTH1 130404Z 11003KT 22/11 A2987 RMK A01 T02160112  RH  051%=      5-min Rain = 0
KTH1 130405Z 11003KT 22/11 A2987 RMK A01 T02160111  RH  051%=      5-min Rain = 0
KTH1 130406Z 11003KT 22/11 A2987 RMK A01 T02160110  RH  051%=      5-min Rain = 0
KTH1 130407Z 11002KT 22/11 A2987 RMK A01 T02160110  RH  051%=      5-min Rain = 0
KTH1 130408Z 11003KT 22/11 A2987 RMK A01 T02160110  RH  051%=      5-min Rain = 0
KTH1 130409Z 11002KT 22/11 A2987 RMK A01 T02150109  RH  051%=      5-min Rain = 0
KTH1 130410Z 11002KT 22/11 A2987 RMK A01 T02150109  RH  051%=      5-min Rain = 0
KTH1 130411Z 11003KT 22/11 A2987 RMK A01 T02150108  RH  050%=      5-min Rain = 0
KTH1 130412Z 10002KT 22/11 A2987 RMK A01 T02150108  RH  050%=      5-min Rain = 0
KTH1 130413Z 11003KT 22/11 A2987 RMK A01 T02150108  RH  051%=      5-min Rain = 0
KTH1 130414Z 11003KT 21/11 A2987 RMK A01 T02140107  RH  051%=      5-min Rain = 0
KTH1 130415Z 11003KT 21/11 A2987 RMK A01 T02140108  RH  051%=      5-min Rain = 0
KTH1 130416Z 11003KT 21/11 A2987 RMK A01 T02130107  RH  051%=      5-min Rain = 0
KTH1 130417Z 12002KT 21/11 A2987 RMK A01 T02130107  RH  051%=      5-min Rain = 0
KTH1 130418Z 11003KT 21/11 A2987 RMK A01 T02120105  RH  051%=      5-min Rain = 0
KTH1 130419Z 11003KT 21/11 A2987 RMK A01 T02120105  RH  051%=      5-min Rain = 0
KTH1 130420Z 10002KT 21/11 A2987 RMK A01 T02110106  RH  051%=      5-min Rain = 0
KTH1 130421Z 11002KT 21/11 A2987 RMK A01 T02110105  RH  051%=      5-min Rain = 0
KTH1 130422Z 10002KT 21/11 A2987 RMK A01 T02110105  RH  051%=      5-min Rain = 0
KTH1 130423Z 11002KT 21/11 A2987 RMK A01 T02100105  RH  051%=      5-min Rain = 0
KTH1 130424Z 10002KT 21/11 A2987 RMK A01 T02100105  RH  051%=      5-min Rain = 0
KTH1 130425Z 09002KT 21/11 A2987 RMK A01 T02090105  RH  051%=      5-min Rain = 0
KTH1 130426Z 09003KT 21/10 A2987 RMK A01 T02090104  RH  051%=      5-min Rain = 0
KTH1 130427Z 09003KT 21/10 A2987 RMK A01 T02090104  RH  051%=      5-min Rain = 0
KTH1 130428Z 08002KT 21/11 A2987 RMK A01 T02090105  RH  051%=      5-min Rain = 0
KTH1 130429Z 09003KT 21/11 A2987 RMK A01 T02090106  RH  052%=      5-min Rain = 0
KTH1 130430Z 08002KT 21/11 A2987 RMK A01 T02080106  RH  052%=      5-min Rain = 0
KTH1 130431Z 09003KT 21/11 A2987 RMK A01 T02080106  RH  052%=      5-min Rain = 0
KTH1 130432Z 09003KT 21/11 A2987 RMK A01 T02070107  RH  052%=      5-min Rain = 0
KTH1 130433Z 09003KT 21/11 A2987 RMK A01 T02070107  RH  053%=      5-min Rain = 0
KTH1 130434Z 08002KT 21/11 A2987 RMK A01 T02070107  RH  053%=      5-min Rain = 0
KTH1 130435Z 08002KT 21/11 A2987 RMK A01 T02060106  RH  053%=      5-min Rain = 0
KTH1 130436Z 07003KT 21/11 A2987 RMK A01 T02060107  RH  053%=      5-min Rain = 0
KTH1 130437Z 08003KT 21/11 A2987 RMK A01 T02060106  RH  053%=      5-min Rain = 0
KTH1 130438Z 08002KT 21/11 A2987 RMK A01 T02060106  RH  053%=      5-min Rain = 0
KTH1 130439Z 08002KT 21/11 A2987 RMK A01 T02050106  RH  053%=      5-min Rain = 0
KTH1 130440Z 08002KT 21/11 A2987 RMK A01 T02050106  RH  053%=      5-min Rain = 0
KTH1 130441Z 08002KT 21/11 A2988 RMK A01 T02050107  RH  053%=      5-min Rain = 0
KTH1 130442Z 09002KT 20/11 A2988 RMK A01 T02040107  RH  053%=      5-min Rain = 0
KTH1 130443Z 08002KT 20/11 A2988 RMK A01 T02040107  RH  054%=      5-min Rain = 0
KTH1 130444Z 09002KT 20/11 A2988 RMK A01 T02030107  RH  054%=      5-min Rain = 0
KTH1 130445Z 10002KT 20/11 A2988 RMK A01 T02020107  RH  054%=      5-min Rain = 0
KTH1 130446Z 11001KT 20/11 A2988 RMK A01 T02020107  RH  054%=      5-min Rain = 0
KTH1 130447Z 12001KT 20/11 A2988 RMK A01 T02020107  RH  054%=      5-min Rain = 0
KTH1 130448Z 12001KT 20/11 A2988 RMK A01 T02020106  RH  054%=      5-min Rain = 0
KTH1 130449Z 13001KT 20/11 A2987 RMK A01 T02020105  RH  054%=      5-min Rain = 0
KTH1 130450Z 13002KT 20/11 A2987 RMK A01 T02030105  RH  053%=      5-min Rain = 0
KTH1 130451Z 12002KT 20/11 A2987 RMK A01 T02030105  RH  053%=      5-min Rain = 0
KTH1 130452Z 12002KT 20/11 A2987 RMK A01 T02030105  RH  053%=      5-min Rain = 0
KTH1 130453Z 13002KT 20/11 A2987 RMK A01 T02030105  RH  053%=      5-min Rain = 0
KTH1 130454Z 14002KT 20/11 A2987 RMK A01 T02030105  RH  053%=      5-min Rain = 0
KTH1 130455Z 14002KT 20/11 A2987 RMK A01 T02030105  RH  053%=      5-min Rain = 0
KTH1 130456Z 14001KT 20/11 A2988 RMK A01 T02030105  RH  053%=      5-min Rain = 0
KTH1 130457Z 14001KT 20/11 A2988 RMK A01 T02020105  RH  054%=      5-min Rain = 0
KTH1 130458Z 13001KT 20/10 A2988 RMK A01 T02020104  RH  054%=      5-min Rain = 0
KTH1 130459Z 15001KT 20/10 A2988 RMK A01 T02020104  RH  054%=      5-min Rain = 0

Page generated in 0.0781 seconds.